LS1802 / G-DRTK 7700 Squawk Report (27th of September, 2022)

Time Lat Lon Altitude Heading Speed Vertical Rate
2022-09-27 21:46:41 GMT 43.518219 -5.691493 4,675 190 268 -1408
2022-09-27 21:46:33 GMT 43.526901 -5.689218 4,850 188 270 -1344
2022-09-27 21:46:24 GMT 43.538261 -5.687583 5,050 185 271 -1280
2022-09-27 21:46:14 GMT 43.551479 -5.686471 5,250 182 275 -1216
2022-09-27 21:46:03 GMT 43.564636 -5.686447 5,475 177 277 -1216
2022-09-27 21:45:53 GMT 43.577362 -5.687533 5,675 174 279 -1152
2022-09-27 21:45:44 GMT 43.590260 -5.689545 5,875 171 281 -1280
2022-09-27 21:45:35 GMT 43.600662 -5.691940 6,050 168 283 -1152
2022-09-27 21:45:28 GMT 43.609577 -5.694449 6,175 162 289 -960
2022-09-27 21:45:23 GMT 43.616867 -5.696922 6,275 162 289 -960
2022-09-27 21:45:12 GMT 43.630711 -5.702558 6,450 160 293 -704
2022-09-27 21:45:05 GMT 43.640167 -5.707206 6,525 158 295 -960
2022-09-27 21:45:02 GMT 43.643646 -5.709058 6,575 156 298 -1152
2022-09-27 21:44:58 GMT 43.648075 -5.711583 6,650 156 298 -640
2022-09-27 21:44:53 GMT 43.655479 -5.716095 6,675 152 309 -960
2022-09-27 21:44:51 GMT 43.658131 -5.717861 6,700 152 309 -960
2022-09-27 21:44:50 GMT 43.659302 -5.718575 6,700 152 309 -960
2022-09-27 21:44:48 GMT 43.661858 -5.720280 6,725 152 309 -960
2022-09-27 21:44:47 GMT 43.662880 -5.721000 6,750 152 310 -960
2022-09-27 21:44:43 GMT 43.671661 -5.727390 6,875 144 325 -1024
2022-09-27 21:44:40 GMT 43.671661 -5.727390 6,875 144 325 -1024
2022-09-27 21:44:28 GMT 43.687225 -5.740612 7,075 144 325 -1024
2022-09-27 21:44:23 GMT 43.696198 -5.749235 7,200 146 331 -1024
2022-09-27 21:44:20 GMT 43.696198 -5.749235 7,200 148 332 -1088
2022-09-27 21:44:15 GMT 43.703938 -5.755724 7,325 153 335 -1216
2022-09-27 21:44:11 GMT 43.708923 -5.759199 7,375 162 337 -1536
2022-09-27 21:44:00 GMT 43.725075 -5.766580 7,675 169 342 -1408
2022-09-27 21:43:53 GMT 43.735546 -5.769130 7,825 170 346 -1472
2022-09-27 21:43:50 GMT 43.740280 -5.770186 7,900 170 346 -1472
2022-09-27 21:43:45 GMT 43.749481 -5.772293 8,075 169 354 -1984
2022-09-27 21:43:43 GMT 43.751083 -5.772677 8,100 169 354 -1984
2022-09-27 21:43:39 GMT 43.757034 -5.774018 8,225 169 354 -1984
2022-09-27 21:43:34 GMT 43.765293 -5.776062 8,375 168 356 -2240
2022-09-27 21:43:32 GMT 43.768982 -5.777084 8,475 167 357 -2304
2022-09-27 21:43:30 GMT 43.779354 -5.780247 8,700 167 359 -2304
2022-09-27 21:43:26 GMT 43.779354 -5.780247 8,700 166 361 -2112
2022-09-27 21:43:22 GMT 43.785873 -5.782322 8,850 166 363 -1920
2022-09-27 21:43:21 GMT 43.787521 -5.782833 8,875 167 369 -1728
2022-09-27 21:43:19 GMT 43.789967 -5.783648 8,925 167 369 -1728
2022-09-27 21:43:17 GMT 43.793133 -5.784629 8,975 167 369 -1728
2022-09-27 21:43:16 GMT 43.796768 -5.785835 9,025 167 369 -1728
2022-09-27 21:43:13 GMT 43.801071 -5.787176 9,100 167 373 -1664
2022-09-27 21:43:11 GMT 43.803909 -5.788070 9,150 167 373 -1664
2022-09-27 21:43:07 GMT 43.811008 -5.790318 9,275 167 378 -1664
2022-09-27 21:43:06 GMT 43.812683 -5.790841 9,300 167 378 -1664
2022-09-27 21:43:04 GMT 43.815899 -5.791822 9,350 167 379 -1664
2022-09-27 21:43:02 GMT 43.819527 -5.792934 9,400 167 383 -1600
2022-09-27 21:43:00 GMT 43.822601 -5.793915 9,450 167 383 -1600
2022-09-27 21:42:59 GMT 43.824509 -5.794503 9,500 167 384 -1536
2022-09-27 21:42:57 GMT 43.830551 -5.796438 9,575 167 387 -1536
2022-09-27 21:42:55 GMT 43.830551 -5.796438 9,575 167 387 -1536
2022-09-27 21:42:51 GMT 43.838974 -5.799057 9,700 166 394 -1536
2022-09-27 21:42:49 GMT 43.842339 -5.800127 9,750 166 394 -1536
2022-09-27 21:42:47 GMT 43.845154 -5.801037 9,800 167 398 -1792
2022-09-27 21:42:46 GMT 43.847672 -5.801867 9,850 167 398 -1792
2022-09-27 21:42:44 GMT 43.850533 -5.802743 9,900 167 399 -1920
2022-09-27 21:42:43 GMT 43.852478 -5.803400 9,925 167 399 -2176
2022-09-27 21:42:41 GMT 43.857010 -5.804805 10,025 167 401 -2624
2022-09-27 21:42:39 GMT 43.860626 -5.805955 10,125 167 401 -2688
2022-09-27 21:42:38 GMT 43.862411 -5.806466 10,175 167 402 -2752
2022-09-27 21:42:37 GMT 43.866081 -5.807648 10,250 167 403 -2880
2022-09-27 21:42:35 GMT 43.867722 -5.808127 10,300 167 403 -2880
2022-09-27 21:42:33 GMT 43.876835 -5.810983 10,550 167 404 -3008
2022-09-27 21:42:30 GMT 43.876835 -5.810983 10,550 167 404 -3264
2022-09-27 21:42:29 GMT 43.878838 -5.811571 10,625 167 404 -3392
2022-09-27 21:42:28 GMT 43.880814 -5.812215 10,675 167 405 -3456
2022-09-27 21:42:25 GMT 43.886490 -5.814003 10,875 167 405 -3456
2022-09-27 21:42:19 GMT 43.896572 -5.817130 11,150 167 407 -2880
2022-09-27 21:42:09 GMT 43.913956 -5.822498 11,600 167 413 -3264
2022-09-27 21:42:03 GMT 43.925621 -5.826089 11,975 167 413 -3264
2022-09-27 21:41:59 GMT 43.933090 -5.828439 12,200 167 413 -3328
2022-09-27 21:41:57 GMT 43.936234 -5.829424 12,275 167 413 -3328
2022-09-27 21:41:50 GMT 43.950249 -5.833871 12,700 167 416 -3264
2022-09-27 21:41:40 GMT 43.969612 -5.839953 13,275 167 417 -3584
2022-09-27 21:41:37 GMT 43.975105 -5.841653 13,450 167 423 -2304
2022-09-27 21:41:29 GMT 43.988937 -5.846004 13,775 167 423 -2304
2022-09-27 21:41:19 GMT 44.007935 -5.852008 14,225 167 429 -2944
2022-09-27 21:41:10 GMT 44.027802 -5.858263 14,725 167 434 -3008
2022-09-27 21:40:57 GMT 44.052383 -5.866060 15,375 167 442 -3264
2022-09-27 21:40:51 GMT 44.062088 -5.869126 15,625 167 442 -3264
2022-09-27 21:40:49 GMT 44.068069 -5.871015 15,800 167 442 -3392
2022-09-27 21:40:39 GMT 44.087856 -5.877293 16,300 166 448 -2304
2022-09-27 21:40:29 GMT 44.108757 -5.884094 16,775 166 453 -3456
2022-09-27 21:40:18 GMT 44.129700 -5.890844 17,325 166 458 -3200
2022-09-27 21:40:09 GMT 44.151443 -5.897806 17,950 167 460 -3648
2022-09-27 21:39:58 GMT 44.172302 -5.904367 18,550 167 462 -3904
2022-09-27 21:39:48 GMT 44.193855 -5.911168 19,150 167 465 -3200
2022-09-27 21:39:38 GMT 44.214291 -5.917544 19,725 167 468 -3584
2022-09-27 21:39:28 GMT 44.236313 -5.924508 20,350 167 471 -3712
2022-09-27 21:39:18 GMT 44.257416 -5.931179 20,925 167 475 -3008
2022-09-27 21:39:07 GMT 44.279324 -5.938110 21,525 167 477 -4416
2022-09-27 21:38:58 GMT 44.302277 -5.945565 22,325 166 475 -4928
2022-09-27 21:38:47 GMT 44.323334 -5.952497 23,175 166 471 -4480
2022-09-27 21:38:37 GMT 44.344849 -5.959691 23,650 166 478 -1856
2022-09-27 21:38:27 GMT 44.366982 -5.967117 24,000 166 488 -1920
2022-09-27 21:38:17 GMT 44.388657 -5.974339 24,325 166 498 -1920
2022-09-27 21:38:06 GMT 44.413025 -5.982525 24,675 166 509 -1920
2022-09-27 21:37:57 GMT 44.435577 -5.990034 25,025 166 517 -2688
2022-09-27 21:37:46 GMT 44.459610 -5.997947 25,700 166 518 -4800
2022-09-27 21:37:36 GMT 44.483364 -6.005703 26,550 166 516 -4928
2022-09-27 21:37:25 GMT 44.507538 -6.013576 27,375 166 514 -4736
2022-09-27 21:37:15 GMT 44.529968 -6.020769 28,100 167 513 -4416
2022-09-27 21:37:06 GMT 44.552681 -6.027810 28,825 167 511 -4480
2022-09-27 21:36:55 GMT 44.578079 -6.035614 29,650 168 510 -4288
2022-09-27 21:36:41 GMT 44.613106 -6.045830 30,750 168 508 -4352
2022-09-27 21:36:24 GMT 44.648251 -6.055209 31,850 169 502 -4480
2022-09-27 21:36:14 GMT 44.672424 -6.061249 32,600 166 502 -4352
2022-09-27 21:36:00 GMT 44.701309 -6.074001 33,475 157 506 -3904
2022-09-27 21:35:54 GMT 44.716187 -6.084072 33,825 150 511 -2496
2022-09-27 21:35:44 GMT 44.735779 -6.101336 34,000 141 519 -64
2022-09-27 21:35:34 GMT 44.754364 -6.124420 34,000 130 522 0
2022-09-27 21:35:23 GMT 44.769196 -6.152076 34,000 119 524 0
2022-09-27 21:35:14 GMT 44.779343 -6.182824 34,000 106 521 0
2022-09-27 21:35:03 GMT 44.784622 -6.215581 34,000 95 515 64
2022-09-27 21:34:53 GMT 44.786316 -6.250501 34,000 92 512 0
2022-09-27 21:34:43 GMT 44.787304 -6.281768 34,000 92 511 0
2022-09-27 21:34:34 GMT 44.788376 -6.316603 34,000 92 511 0
2022-09-27 21:34:22 GMT 44.789474 -6.351340 34,000 92 510 0
2022-09-27 21:34:13 GMT 44.790527 -6.384168 34,000 92 510 0
2022-09-27 21:34:02 GMT 44.791588 -6.417556 34,000 92 509 0
2022-09-27 21:33:51 GMT 44.792770 -6.455579 34,000 92 509 64
2022-09-27 21:33:42 GMT 44.793633 -6.484278 34,000 92 509 64
2022-09-27 21:33:33 GMT 44.794647 -6.517312 34,000 92 508 64
2022-09-27 21:33:20 GMT 44.795883 -6.556876 34,000 92 508 -64
2022-09-27 21:33:12 GMT 44.796707 -6.584865 34,050 92 510 -704
2022-09-27 21:33:02 GMT 44.797760 -6.618347 34,250 92 513 -1792
2022-09-27 21:32:51 GMT 44.798767 -6.652679 34,650 92 513 -2688
2022-09-27 21:32:42 GMT 44.799774 -6.685704 35,050 92 514 -2560
2022-09-27 21:32:31 GMT 44.800941 -6.722427 35,550 92 514 -2624
2022-09-27 21:32:21 GMT 44.802105 -6.756056 35,925 92 512 -1600
2022-09-27 21:32:11 GMT 44.803223 -6.786938 36,000 92 512 64
2022-09-27 21:32:01 GMT 44.804214 -6.820810 36,000 88 507 0
2022-09-27 21:31:48 GMT 44.802429 -6.862728 36,000 80 499 0
2022-09-27 21:31:40 GMT 44.798309 -6.887185 36,000 71 489 0
2022-09-27 21:31:27 GMT 44.786373 -6.924669 36,000 55 470 0
2022-09-27 21:31:19 GMT 44.774872 -6.947111 36,000 49 461 0
2022-09-27 21:31:10 GMT 44.762787 -6.964155 36,000 21 428 0
2022-09-27 21:30:01 GMT 44.636993 -7.041909 36,000 21 428 0
2022-09-27 21:29:58 GMT 44.631073 -7.045117 36,000 20 428 0
2022-09-27 21:29:29 GMT 44.577759 -7.073560 36,000 21 429 0
2022-09-27 21:29:09 GMT 44.538898 -7.094756 36,000 22 431 0
2022-09-27 21:28:57 GMT 44.520264 -7.105539 36,000 22 432 0
2022-09-27 21:28:45 GMT 44.497421 -7.118944 36,000 22 432 0
2022-09-27 21:28:36 GMT 44.480850 -7.128720 36,000 22 432 0
2022-09-27 21:28:26 GMT 44.462402 -7.139544 36,000 22 432 0
2022-09-27 21:28:16 GMT 44.443935 -7.150358 36,000 22 433 0
2022-09-27 21:28:08 GMT 44.427658 -7.159882 36,000 22 433 0
2022-09-27 21:27:57 GMT 44.407345 -7.171795 36,000 22 433 -64
2022-09-27 21:27:47 GMT 44.390118 -7.181843 36,000 22 434 0
2022-09-27 21:27:35 GMT 44.367542 -7.194973 36,000 22 434 0
2022-09-27 21:27:26 GMT 44.351200 -7.204419 36,000 22 434 0
2022-09-27 21:27:16 GMT 44.332485 -7.215338 36,000 22 435 0
2022-09-27 21:27:13 GMT 44.327831 -7.218018 36,000 22 435 0
2022-09-27 21:27:06 GMT 44.313541 -7.226324 36,000 22 435 0
2022-09-27 21:26:57 GMT 44.294952 -7.237178 36,000 22 436 0
2022-09-27 21:26:46 GMT 44.276550 -7.247838 36,000 22 436 0
2022-09-27 21:26:43 GMT 44.270782 -7.251238 36,000 22 437 64
2022-09-27 21:26:36 GMT 44.257912 -7.258747 36,000 22 437 0
2022-09-27 21:26:26 GMT 44.238876 -7.269745 36,000 22 437 0
2022-09-27 21:26:16 GMT 44.220062 -7.280666 36,000 22 437 0
2022-09-27 21:26:05 GMT 44.200977 -7.291706 36,000 22 437 0
2022-09-27 21:25:55 GMT 44.180832 -7.303353 36,000 22 438 0
2022-09-27 21:25:44 GMT 44.160618 -7.315063 36,000 22 438 0
2022-09-27 21:25:39 GMT 44.151077 -7.320535 36,000 22 438 0
2022-09-27 21:25:35 GMT 44.143753 -7.324751 36,000 22 438 0
2022-09-27 21:25:30 GMT 44.133102 -7.330889 36,000 22 438 0
2022-09-27 21:25:21 GMT 44.118114 -7.339587 36,000 22 438 0
2022-09-27 21:25:18 GMT 44.112713 -7.342660 36,000 22 438 0
2022-09-27 21:25:10 GMT 44.098297 -7.351003 36,000 22 438 0
2022-09-27 21:25:04 GMT 44.086506 -7.357832 36,000 22 438 0
2022-09-27 21:24:54 GMT 44.066814 -7.369145 36,000 22 438 0
2022-09-27 21:24:45 GMT 44.049225 -7.379299 36,000 22 438 0
2022-09-27 21:24:29 GMT 44.021519 -7.395303 36,000 22 438 0
2022-09-27 21:24:24 GMT 44.010857 -7.401450 36,000 22 438 0
2022-09-27 21:24:14 GMT 43.991821 -7.412450 36,000 22 437 0
2022-09-27 21:24:05 GMT 43.936188 -7.444545 36,000 22 437 0
2022-09-27 21:23:44 GMT 43.936188 -7.444545 36,000 22 436 0
2022-09-27 21:23:35 GMT 43.919815 -7.453904 36,000 22 436 0
2022-09-27 21:23:25 GMT 43.901367 -7.464443 36,000 22 435 0
2022-09-27 21:23:16 GMT 43.883881 -7.474472 36,000 22 434 0
2022-09-27 21:23:13 GMT 43.878090 -7.477766 36,000 22 434 0
2022-09-27 21:23:05 GMT 43.863235 -7.486225 36,000 22 434 0
2022-09-27 21:23:02 GMT 43.858612 -7.488907 36,000 22 434 0
2022-09-27 21:22:55 GMT 43.844879 -7.496700 36,000 22 434 0
2022-09-27 21:22:52 GMT 43.840431 -7.499281 36,000 22 434 0
2022-09-27 21:22:45 GMT 43.826324 -7.507324 36,000 22 434 0
2022-09-27 21:22:39 GMT 43.814827 -7.513864 36,000 22 434 0
2022-09-27 21:22:35 GMT 43.807610 -7.517984 36,000 22 434 0
2022-09-27 21:22:32 GMT 43.803543 -7.520333 36,000 22 433 0
2022-09-27 21:22:25 GMT 43.787979 -7.529212 36,000 22 432 0
2022-09-27 21:22:19 GMT 43.779678 -7.533940 36,000 22 432 0
2022-09-27 21:22:14 GMT 43.769531 -7.539687 36,000 22 432 0
2022-09-27 21:22:07 GMT 43.757706 -7.546430 36,000 22 431 0
2022-09-27 21:22:03 GMT 43.750122 -7.550737 36,000 22 431 0
2022-09-27 21:21:56 GMT 43.737213 -7.558083 36,000 22 431 0
2022-09-27 21:21:54 GMT 43.732452 -7.560829 36,000 22 431 0
2022-09-27 21:21:49 GMT 43.723026 -7.566180 36,000 22 431 0
2022-09-27 21:21:44 GMT 43.713821 -7.571369 36,000 22 430 0
2022-09-27 21:21:40 GMT 43.707733 -7.574818 36,000 22 430 0
2022-09-27 21:21:32 GMT 43.671352 -7.595476 36,000 22 428 0
2022-09-27 21:21:21 GMT 43.671352 -7.595476 36,000 22 429 64
2022-09-27 21:21:13 GMT 43.657761 -7.603193 36,000 22 429 0
2022-09-27 21:21:09 GMT 43.648407 -7.608543 36,000 22 429 0
2022-09-27 21:21:03 GMT 43.639278 -7.613787 36,000 22 428 0
2022-09-27 21:21:00 GMT 43.634857 -7.616272 36,000 22 428 0
2022-09-27 21:20:51 GMT 43.616932 -7.626474 36,000 22 428 0
2022-09-27 21:20:42 GMT 43.601166 -7.635498 36,000 22 428 0
2022-09-27 21:20:37 GMT 43.588165 -7.642888 36,000 22 428 0
2022-09-27 21:20:30 GMT 43.578480 -7.648381 36,000 22 428 0
2022-09-27 21:20:26 GMT 43.571312 -7.652435 36,000 22 428 0
2022-09-27 21:20:23 GMT 43.564934 -7.656032 36,000 22 428 0
2022-09-27 21:20:20 GMT 43.558884 -7.659498 36,000 22 428 0
2022-09-27 21:20:17 GMT 43.555389 -7.661460 36,000 22 428 0
2022-09-27 21:20:13 GMT 43.545868 -7.666860 36,000 22 428 0
2022-09-27 21:20:10 GMT 43.542217 -7.668980 36,000 22 428 0
2022-09-27 21:20:07 GMT 43.536537 -7.672185 36,000 22 428 0
2022-09-27 21:20:00 GMT 43.523529 -7.679507 36,000 22 429 0
2022-09-27 21:19:57 GMT 43.518383 -7.682452 36,000 22 429 0
2022-09-27 21:19:52 GMT 43.508141 -7.688206 36,000 22 429 0
2022-09-27 21:19:47 GMT 43.499901 -7.692915 36,000 22 429 0
2022-09-27 21:19:42 GMT 43.489986 -7.698473 36,000 22 429 0
2022-09-27 21:19:37 GMT 43.479904 -7.704163 36,000 22 429 0
2022-09-27 21:19:29 GMT 43.467407 -7.711189 36,000 22 429 0
2022-09-27 21:19:20 GMT 43.448547 -7.721856 36,000 22 429 -64
2022-09-27 21:19:12 GMT 43.434265 -7.729904 36,000 22 428 0
2022-09-27 21:19:09 GMT 43.429840 -7.732413 36,000 22 428 0
2022-09-27 21:19:04 GMT 43.419598 -7.738168 36,000 22 428 0
2022-09-27 21:19:01 GMT 43.415733 -7.740391 36,000 22 428 0
2022-09-27 21:18:56 GMT 43.406796 -7.745427 36,000 22 428 0
2022-09-27 21:18:51 GMT 43.396881 -7.750985 36,000 22 428 0
2022-09-27 21:18:48 GMT 43.391945 -7.753797 36,000 22 428 0
2022-09-27 21:18:41 GMT 43.378601 -7.761330 36,000 22 427 0
2022-09-27 21:18:36 GMT 43.370022 -7.766157 36,000 22 428 0
2022-09-27 21:18:30 GMT 43.359219 -7.772239 36,000 22 428 0
2022-09-27 21:18:27 GMT 43.353699 -7.775318 36,000 22 428 0
2022-09-27 21:18:21 GMT 43.341614 -7.782089 36,000 22 428 0
2022-09-27 21:18:17 GMT 43.335205 -7.785730 36,000 22 428 0
2022-09-27 21:18:12 GMT 43.325684 -7.791095 36,000 22 428 0
2022-09-27 21:18:08 GMT 43.317276 -7.795846 36,000 22 429 0
2022-09-27 21:18:00 GMT 43.302612 -7.804062 36,000 22 429 0
2022-09-27 21:17:52 GMT 43.288834 -7.811802 36,000 22 429 0
2022-09-27 21:17:48 GMT 43.266632 -7.824246 36,000 22 429 0
2022-09-27 21:17:40 GMT 43.266632 -7.824246 36,000 22 429 0
2022-09-27 21:17:37 GMT 43.262238 -7.826673 36,000 22 429 0
2022-09-27 21:17:32 GMT 43.244064 -7.836893 36,000 22 429 0
2022-09-27 21:17:28 GMT 43.244064 -7.836893 36,000 22 429 0
2022-09-27 21:17:21 GMT 43.232830 -7.843127 36,000 22 430 0
2022-09-27 21:17:17 GMT 43.225288 -7.847377 36,000 22 430 0
2022-09-27 21:17:12 GMT 43.214447 -7.853436 36,000 22 429 0
2022-09-27 21:17:09 GMT 43.209694 -7.856075 36,000 22 429 0
2022-09-27 21:17:07 GMT 43.206940 -7.857588 36,000 22 429 0
2022-09-27 21:17:03 GMT 43.196640 -7.863337 36,000 22 429 0
2022-09-27 21:16:58 GMT 43.188187 -7.868042 36,000 22 429 0
2022-09-27 21:16:50 GMT 43.175850 -7.874908 36,000 22 429 0
2022-09-27 21:16:47 GMT 43.169426 -7.878505 36,000 22 429 0
2022-09-27 21:16:40 GMT 43.155258 -7.886395 36,000 22 429 0
2022-09-27 21:16:37 GMT 43.151413 -7.888567 36,000 22 429 0
2022-09-27 21:16:32 GMT 43.142395 -7.893549 36,000 22 430 0
2022-09-27 21:16:29 GMT 43.135956 -7.897143 36,000 22 430 0
2022-09-27 21:16:26 GMT 43.131535 -7.899628 36,000 22 430 0
2022-09-27 21:16:21 GMT 43.120331 -7.905877 36,000 22 429 0
2022-09-27 21:16:16 GMT 43.113331 -7.909764 36,000 22 429 0
2022-09-27 21:16:11 GMT 43.098633 -7.917949 36,000 22 429 0
2022-09-27 21:16:08 GMT 43.098633 -7.917949 36,000 22 429 0
2022-09-27 21:16:05 GMT 43.092911 -7.921143 36,000 22 429 0
2022-09-27 21:16:00 GMT 43.083160 -7.926508 36,000 22 429 0
2022-09-27 21:15:56 GMT 43.076202 -7.930404 36,000 22 429 0
2022-09-27 21:15:50 GMT 43.064217 -7.937034 36,000 22 429 0
2022-09-27 21:15:46 GMT 43.057423 -7.940826 36,000 22 429 0
2022-09-27 21:15:41 GMT 43.047684 -7.946181 36,000 22 429 0
2022-09-27 21:15:38 GMT 43.042877 -7.948864 36,000 22 429 0
2022-09-27 21:15:35 GMT 43.037201 -7.951994 36,000 22 429 0
2022-09-27 21:15:28 GMT 43.005524 -7.969559 36,000 22 429 0
2022-09-27 21:15:18 GMT 43.005524 -7.969559 36,000 22 429 0
2022-09-27 21:15:15 GMT 43.000023 -7.972608 36,000 22 429 0
2022-09-27 21:15:10 GMT 42.988617 -7.978952 36,000 22 429 0
2022-09-27 21:15:07 GMT 42.985313 -7.980783 36,000 22 429 0
2022-09-27 21:15:00 GMT 42.970596 -7.988913 36,000 22 429 0
2022-09-27 21:14:57 GMT 42.966934 -7.990957 36,000 22 429 0
2022-09-27 21:14:51 GMT 42.955753 -7.997197 36,000 22 429 0
2022-09-27 21:14:47 GMT 42.948029 -8.001496 36,000 22 428 0
2022-09-27 21:14:38 GMT 42.933311 -8.009622 36,000 22 428 0
2022-09-27 21:14:35 GMT 42.926517 -8.013415 36,000 22 428 0
2022-09-27 21:14:29 GMT 42.914040 -8.020347 36,000 22 428 0
2022-09-27 21:14:25 GMT 42.908733 -8.023289 36,000 22 428 0
2022-09-27 21:14:19 GMT 42.895840 -8.030417 36,000 22 428 0
2022-09-27 21:14:16 GMT 42.892906 -8.031987 36,000 22 428 0
2022-09-27 21:14:06 GMT 42.872936 -8.043039 36,000 22 428 0
2022-09-27 21:13:58 GMT 42.856968 -8.051801 36,000 22 428 0
2022-09-27 21:13:55 GMT 42.854408 -8.053240 36,000 22 428 0
2022-09-27 21:13:52 GMT 42.848728 -8.056379 36,000 22 428 0
2022-09-27 21:13:46 GMT 42.837524 -8.062496 36,000 22 427 0
2022-09-27 21:13:43 GMT 42.831848 -8.065626 36,000 22 427 0
2022-09-27 21:13:36 GMT 42.819588 -8.072401 36,000 22 427 0
2022-09-27 21:13:32 GMT 42.809669 -8.077829 36,000 22 427 0
2022-09-27 21:13:27 GMT 42.802368 -8.081880 36,000 22 427 0
2022-09-27 21:13:24 GMT 42.781128 -8.093553 36,000 22 427 0
2022-09-27 21:13:16 GMT 42.781128 -8.093553 36,000 22 427 0
2022-09-27 21:13:11 GMT 42.772156 -8.098547 36,000 22 427 0
2022-09-27 21:13:06 GMT 42.763210 -8.103503 36,000 22 427 0
2022-09-27 21:13:03 GMT 42.756271 -8.107348 36,000 22 426 0
2022-09-27 21:12:55 GMT 42.744553 -8.113840 36,000 22 427 0
2022-09-27 21:12:50 GMT 42.734722 -8.119344 36,000 22 427 0
2022-09-27 21:12:46 GMT 42.725552 -8.124390 36,000 22 427 0
2022-09-27 21:12:41 GMT 42.718430 -8.128350 36,000 22 427 0
2022-09-27 21:12:35 GMT 42.707069 -8.134609 36,000 22 427 0
2022-09-27 21:12:32 GMT 42.699554 -8.138747 36,000 22 427 0
2022-09-27 21:12:24 GMT 42.686783 -8.145801 36,000 22 427 0
2022-09-27 21:12:20 GMT 42.679642 -8.149733 36,000 22 427 0
2022-09-27 21:12:17 GMT 42.672668 -8.153516 36,000 22 427 0
2022-09-27 21:12:14 GMT 42.668663 -8.155752 36,000 22 427 0
2022-09-27 21:12:10 GMT 42.661880 -8.159471 36,000 22 427 0
2022-09-27 21:12:05 GMT 42.651627 -8.165077 36,000 22 427 0
2022-09-27 21:12:01 GMT 42.642456 -8.170060 36,000 22 427 0
2022-09-27 21:11:56 GMT 42.630203 -8.176762 36,000 22 427 0
2022-09-27 21:11:53 GMT 42.630203 -8.176762 36,000 22 427 0
2022-09-27 21:11:50 GMT 42.624161 -8.180070 36,000 22 427 0
2022-09-27 21:11:46 GMT 42.616665 -8.184176 36,000 21 426 0
2022-09-27 21:11:43 GMT 42.610985 -8.187242 36,000 21 426 0
2022-09-27 21:11:39 GMT 42.604568 -8.190745 36,000 21 426 0
2022-09-27 21:11:33 GMT 42.591389 -8.197909 36,000 22 427 0
2022-09-27 21:11:30 GMT 42.585892 -8.200919 36,000 22 427 0
2022-09-27 21:11:26 GMT 42.579704 -8.204296 36,000 22 427 0
2022-09-27 21:11:22 GMT 42.573486 -8.207723 36,000 22 427 0
2022-09-27 21:11:18 GMT 42.566711 -8.211406 36,000 22 427 0
2022-09-27 21:11:15 GMT 42.561222 -8.214388 36,000 22 427 0
2022-09-27 21:11:12 GMT 42.555359 -8.217586 36,000 22 427 0
2022-09-27 21:11:09 GMT 42.548420 -8.221414 36,000 22 427 0
2022-09-27 21:11:05 GMT 42.541996 -8.224927 36,000 22 427 0
2022-09-27 21:11:02 GMT 42.534874 -8.228824 36,000 22 426 0
2022-09-27 21:10:59 GMT 42.529221 -8.231881 36,000 22 426 0
2022-09-27 21:10:54 GMT 42.520981 -8.236438 36,000 22 426 0
2022-09-27 21:10:51 GMT 42.516037 -8.239122 36,000 22 426 0
2022-09-27 21:10:48 GMT 42.509827 -8.242493 36,000 22 426 0
2022-09-27 21:10:43 GMT 42.501801 -8.246925 36,000 22 426 0
2022-09-27 21:10:38 GMT 42.491592 -8.252480 36,000 22 426 0
2022-09-27 21:10:34 GMT 42.486282 -8.255414 36,000 21 425 0
2022-09-27 21:10:31 GMT 42.478264 -8.259739 36,000 21 425 0
2022-09-27 21:10:28 GMT 42.472260 -8.263060 36,000 22 426 0
2022-09-27 21:10:25 GMT 42.458954 -8.270333 36,000 22 426 0
2022-09-27 21:10:20 GMT 42.458954 -8.270333 36,000 22 426 0
2022-09-27 21:10:16 GMT 42.453079 -8.273535 36,000 22 425 0
2022-09-27 21:10:12 GMT 42.446548 -8.277075 36,000 22 425 0
2022-09-27 21:10:07 GMT 42.436134 -8.282797 36,000 22 425 0
2022-09-27 21:10:03 GMT 42.427757 -8.287396 36,000 22 425 0
2022-09-27 21:10:00 GMT 42.416073 -8.293720 36,000 22 425 0
2022-09-27 21:09:57 GMT 42.416073 -8.293720 36,000 22 425 0
2022-09-27 21:09:52 GMT 42.409149 -8.297549 36,000 21 425 0
2022-09-27 21:09:46 GMT 42.398209 -8.303479 36,000 21 425 0
2022-09-27 21:09:42 GMT 42.390381 -8.307786 36,000 21 425 0
2022-09-27 21:09:38 GMT 42.384182 -8.311093 36,000 21 425 0
2022-09-27 21:09:33 GMT 42.373032 -8.317150 36,000 21 425 0
2022-09-27 21:09:29 GMT 42.365158 -8.321394 36,000 21 425 0
2022-09-27 21:09:26 GMT 42.359695 -8.324315 36,000 21 425 0
2022-09-27 21:09:22 GMT 42.353302 -8.327824 36,000 21 425 0
2022-09-27 21:09:16 GMT 42.344330 -8.332631 36,000 21 425 0
2022-09-27 21:09:13 GMT 42.336502 -8.336875 36,000 21 425 0
2022-09-27 21:09:10 GMT 42.332291 -8.339122 36,000 21 425 0
2022-09-27 21:09:07 GMT 42.327713 -8.341619 36,000 21 425 0
2022-09-27 21:09:04 GMT 42.322083 -8.344678 36,000 21 425 0
2022-09-27 21:09:01 GMT 42.315845 -8.348013 36,000 21 425 0
2022-09-27 21:08:55 GMT 42.303268 -8.354790 36,000 21 425 0
2022-09-27 21:08:50 GMT 42.296337 -8.358552 36,000 21 425 0
2022-09-27 21:08:47 GMT 42.289963 -8.362001 36,000 21 425 0
2022-09-27 21:08:43 GMT 42.283211 -8.365642 36,000 21 425 0
2022-09-27 21:08:40 GMT 42.277359 -8.368773 36,000 21 424 0
2022-09-27 21:08:37 GMT 42.270454 -8.372540 36,000 21 424 0
2022-09-27 21:08:31 GMT 42.259323 -8.378511 36,000 21 424 0
2022-09-27 21:08:27 GMT 42.253510 -8.381674 36,000 21 424 0
2022-09-27 21:08:24 GMT 42.246201 -8.385634 36,000 21 424 0
2022-09-27 21:08:19 GMT 42.238953 -8.389560 36,000 21 424 0
2022-09-27 21:08:16 GMT 42.232224 -8.393243 36,000 21 423 0
2022-09-27 21:08:10 GMT 42.221855 -8.398856 36,000 21 423 0
2022-09-27 21:08:06 GMT 42.214035 -8.403072 36,000 21 423 0
2022-09-27 21:08:02 GMT 42.209473 -8.405499 36,000 21 423 0
2022-09-27 21:07:59 GMT 42.203293 -8.408848 36,000 21 423 0
2022-09-27 21:07:55 GMT 42.195465 -8.413030 36,000 21 423 0
2022-09-27 21:07:49 GMT 42.184753 -8.418785 36,000 21 423 0
2022-09-27 21:07:44 GMT 42.176605 -8.423192 36,000 21 423 0
2022-09-27 21:07:39 GMT 42.166969 -8.428366 36,000 21 423 0
2022-09-27 21:07:35 GMT 42.157700 -8.433318 36,000 21 423 0
2022-09-27 21:07:31 GMT 42.152260 -8.436223 36,000 21 423 0
2022-09-27 21:07:28 GMT 42.147697 -8.438650 36,000 21 423 0
2022-09-27 21:07:24 GMT 42.138794 -8.443430 36,000 21 423 0
2022-09-27 21:07:19 GMT 42.129730 -8.448359 36,000 21 423 0
2022-09-27 21:07:14 GMT 42.119953 -8.453596 36,000 21 422 0
2022-09-27 21:07:09 GMT 42.111435 -8.458195 36,000 21 422 0
2022-09-27 21:07:06 GMT 42.105427 -8.461389 36,000 21 422 0
2022-09-27 21:07:03 GMT 42.100540 -8.464008 36,000 21 422 0
2022-09-27 21:06:58 GMT 42.092560 -8.468337 36,000 21 422 0
2022-09-27 21:06:53 GMT 42.082764 -8.473580 36,000 21 422 0
2022-09-27 21:06:48 GMT 42.074295 -8.478199 36,000 21 422 0
2022-09-27 21:06:43 GMT 42.064323 -8.483553 36,000 21 421 0
2022-09-27 21:06:38 GMT 42.050030 -8.491282 36,000 21 421 0
2022-09-27 21:06:35 GMT 42.050030 -8.491282 36,000 21 421 0
2022-09-27 21:06:32 GMT 42.045502 -8.493743 36,000 21 421 0
2022-09-27 21:06:28 GMT 42.036625 -8.498500 36,000 21 421 0
2022-09-27 21:06:25 GMT 42.031586 -8.501233 36,000 22 421 0
2022-09-27 21:06:21 GMT 42.024902 -8.504854 36,000 22 421 0
2022-09-27 21:06:17 GMT 42.018585 -8.508287 36,000 22 421 0
2022-09-27 21:06:12 GMT 42.007370 -8.514342 36,000 21 421 0
2022-09-27 21:06:07 GMT 41.999771 -8.518399 36,000 21 421 0
2022-09-27 21:06:04 GMT 41.988922 -8.524267 36,000 21 421 0
2022-09-27 21:06:01 GMT 41.988922 -8.524267 36,000 21 421 0
2022-09-27 21:05:57 GMT 41.981873 -8.528012 36,000 21 422 0
2022-09-27 21:05:52 GMT 41.972614 -8.532992 36,000 21 421 64
2022-09-27 21:05:46 GMT 41.961395 -8.538996 36,000 21 421 64
2022-09-27 21:05:41 GMT 41.951614 -8.544180 36,000 21 423 0
2022-09-27 21:05:37 GMT 41.943985 -8.548258 36,000 21 423 0
2022-09-27 21:05:32 GMT 41.935978 -8.552537 36,000 21 422 0
2022-09-27 21:05:29 GMT 41.931427 -8.554979 36,000 21 422 0
2022-09-27 21:05:26 GMT 41.925968 -8.557839 36,000 21 423 0
2022-09-27 21:05:22 GMT 41.917637 -8.562310 36,000 21 424 -64
2022-09-27 21:05:19 GMT 41.913960 -8.564226 36,000 21 424 -64
2022-09-27 21:05:16 GMT 41.906891 -8.568025 36,000 21 424 -64
2022-09-27 21:05:13 GMT 41.901627 -8.570834 36,000 21 424 -64
2022-09-27 21:05:09 GMT 41.893066 -8.575391 36,000 21 422 64
2022-09-27 21:05:05 GMT 41.885796 -8.579236 36,000 21 423 0
2022-09-27 21:05:02 GMT 41.882862 -8.580833 36,000 21 423 0
2022-09-27 21:04:59 GMT 41.876129 -8.584380 36,000 21 422 64
2022-09-27 21:04:56 GMT 41.870865 -8.587189 36,000 21 423 0
2022-09-27 21:04:53 GMT 41.864868 -8.590372 36,000 20 421 0
2022-09-27 21:04:49 GMT 41.857956 -8.594055 36,000 20 421 0
2022-09-27 21:04:46 GMT 41.852276 -8.596866 36,000 18 420 0
2022-09-27 21:04:43 GMT 41.839966 -8.602482 36,000 18 419 0
2022-09-27 21:04:39 GMT 41.839966 -8.602482 36,000 17 419 0
2022-09-27 21:04:36 GMT 41.833878 -8.605104 36,000 18 419 0
2022-09-27 21:04:33 GMT 41.828888 -8.607289 36,000 18 419 0
2022-09-27 21:04:30 GMT 41.823742 -8.609513 36,000 18 419 0
2022-09-27 21:04:25 GMT 41.813965 -8.613781 36,000 18 419 0
2022-09-27 21:04:21 GMT 41.807648 -8.616527 36,000 18 419 0
2022-09-27 21:04:17 GMT 41.799347 -8.620180 36,000 18 419 0
2022-09-27 21:04:14 GMT 41.792358 -8.623206 36,000 18 419 0
2022-09-27 21:04:09 GMT 41.783146 -8.627270 36,000 18 419 0
2022-09-27 21:04:06 GMT 41.778492 -8.629250 36,000 18 419 0
2022-09-27 21:04:03 GMT 41.772629 -8.631821 36,000 18 419 0
2022-09-27 21:03:59 GMT 41.766342 -8.634551 36,000 18 419 0
2022-09-27 21:03:56 GMT 41.758942 -8.637813 36,000 18 419 0
2022-09-27 21:03:53 GMT 41.755463 -8.639311 36,000 18 419 0
2022-09-27 21:03:50 GMT 41.747864 -8.642620 36,000 18 419 0
2022-09-27 21:03:46 GMT 41.735523 -8.647965 36,000 18 419 0
2022-09-27 21:03:43 GMT 41.735523 -8.647965 36,000 18 419 0
2022-09-27 21:03:39 GMT 41.730011 -8.650360 36,000 18 419 0
2022-09-27 21:03:35 GMT 41.720764 -8.654418 36,000 18 419 0
2022-09-27 21:03:32 GMT 41.709366 -8.659411 36,000 18 419 64
2022-09-27 21:03:29 GMT 41.709366 -8.659411 36,000 18 419 0
2022-09-27 21:03:26 GMT 41.703449 -8.661953 36,000 18 419 0
2022-09-27 21:03:23 GMT 41.695312 -8.665529 36,000 18 419 0
2022-09-27 21:03:20 GMT 41.695312 -8.665529 36,000 18 419 0
2022-09-27 21:03:17 GMT 41.689041 -8.668213 36,000 18 419 0
2022-09-27 21:03:14 GMT 41.684269 -8.670321 36,000 18 419 64
2022-09-27 21:03:11 GMT 41.676498 -8.673706 36,000 18 419 64
2022-09-27 21:03:07 GMT 41.670776 -8.676203 36,000 18 419 0
2022-09-27 21:03:04 GMT 41.663223 -8.679511 36,000 18 420 0
2022-09-27 21:03:00 GMT 41.655487 -8.682882 36,000 18 420 0
2022-09-27 21:02:55 GMT 41.646980 -8.686609 36,000 18 420 0
2022-09-27 21:02:52 GMT 41.642532 -8.688500 36,000 18 420 0
2022-09-27 21:02:49 GMT 41.636600 -8.691080 36,000 18 420 0
2022-09-27 21:02:45 GMT 41.629028 -8.694368 36,000 17 421 0
2022-09-27 21:02:42 GMT 41.623474 -8.696765 36,000 18 421 0
2022-09-27 21:02:39 GMT 41.618073 -8.699128 36,000 18 421 0
2022-09-27 21:02:36 GMT 41.612137 -8.701671 36,000 18 421 0
2022-09-27 21:02:33 GMT 41.601219 -8.706473 36,000 18 422 0
2022-09-27 21:02:30 GMT 41.601219 -8.706473 36,000 18 422 0
2022-09-27 21:02:27 GMT 41.590096 -8.711328 36,000 18 422 0
2022-09-27 21:02:24 GMT 41.590096 -8.711328 36,000 18 422 0
2022-09-27 21:02:21 GMT 41.584900 -8.713594 36,000 18 422 0
2022-09-27 21:02:18 GMT 41.578968 -8.716182 36,000 18 422 0
2022-09-27 21:02:13 GMT 41.571579 -8.719462 36,000 18 422 0
2022-09-27 21:02:10 GMT 41.564346 -8.722645 36,000 18 421 -64
2022-09-27 21:02:07 GMT 41.556763 -8.725955 36,000 18 421 -64
2022-09-27 21:02:03 GMT 41.552666 -8.727680 36,000 18 421 0
2022-09-27 21:01:59 GMT 41.544525 -8.731259 36,000 18 421 0
2022-09-27 21:01:53 GMT 41.534134 -8.735754 36,000 17 421 0
2022-09-27 21:01:50 GMT 41.527451 -8.738625 36,000 17 421 0
2022-09-27 21:01:46 GMT 41.515594 -8.743744 36,000 17 421 0
2022-09-27 21:01:43 GMT 41.515594 -8.743744 36,000 17 421 0
2022-09-27 21:01:39 GMT 41.505249 -8.748238 36,000 17 421 0
2022-09-27 21:01:36 GMT 41.501541 -8.749861 36,000 18 421 0
2022-09-27 21:01:33 GMT 41.495968 -8.752271 36,000 18 421 0
2022-09-27 21:01:30 GMT 41.488541 -8.755479 36,000 17 421 0
2022-09-27 21:01:27 GMT 41.483353 -8.757700 36,000 17 421 0
2022-09-27 21:01:23 GMT 41.477253 -8.760383 36,000 17 421 0
2022-09-27 21:01:18 GMT 41.460773 -8.767473 36,000 17 421 0
2022-09-27 21:01:14 GMT 41.460773 -8.767473 36,000 17 421 0
2022-09-27 21:01:11 GMT 41.454071 -8.770336 36,000 17 421 0
2022-09-27 21:01:08 GMT 41.443501 -8.774819 36,000 17 421 0
2022-09-27 21:01:02 GMT 41.438690 -8.776890 36,000 17 421 0
2022-09-27 21:00:59 GMT 41.431305 -8.780120 36,000 17 421 0
2022-09-27 21:00:55 GMT 41.424789 -8.782867 36,000 17 421 0
2022-09-27 21:00:52 GMT 41.420551 -8.784719 36,000 17 421 0
2022-09-27 21:00:48 GMT 41.410721 -8.788875 36,000 17 421 0
2022-09-27 21:00:45 GMT 41.406818 -8.790595 36,000 17 421 0
2022-09-27 21:00:42 GMT 41.402210 -8.792576 36,000 17 421 0
2022-09-27 21:00:38 GMT 41.394424 -8.795867 36,000 17 421 0
2022-09-27 21:00:35 GMT 41.388897 -8.798260 36,000 17 421 0
2022-09-27 21:00:32 GMT 41.382378 -8.801048 36,000 17 420 0
2022-09-27 21:00:28 GMT 41.373489 -8.804855 36,000 18 420 0
2022-09-27 21:00:25 GMT 41.370926 -8.805979 36,000 18 420 0
2022-09-27 21:00:22 GMT 41.362408 -8.809662 36,000 18 420 0
2022-09-27 21:00:17 GMT 41.349243 -8.815308 36,000 18 420 0
2022-09-27 21:00:14 GMT 41.349243 -8.815308 36,000 18 420 0
2022-09-27 21:00:11 GMT 41.343521 -8.817749 36,000 18 420 0
2022-09-27 21:00:08 GMT 41.339085 -8.819649 36,000 17 420 0
2022-09-27 21:00:05 GMT 41.330566 -8.823303 36,000 17 420 0
2022-09-27 21:00:01 GMT 41.325027 -8.825704 36,000 17 420 0
2022-09-27 20:59:58 GMT 41.320221 -8.827759 36,000 17 420 0
2022-09-27 20:59:54 GMT 41.313766 -8.830505 36,000 17 420 0
2022-09-27 20:59:51 GMT 41.306717 -8.833496 36,000 17 420 0
2022-09-27 20:59:48 GMT 41.302074 -8.835505 36,000 17 420 0
2022-09-27 20:59:45 GMT 41.296005 -8.838135 36,000 17 420 0
2022-09-27 20:59:42 GMT 41.289139 -8.841064 36,000 17 420 0
2022-09-27 20:59:38 GMT 41.282684 -8.843811 36,000 17 420 0
2022-09-27 20:59:34 GMT 41.275085 -8.847107 36,000 17 420 0
2022-09-27 20:59:31 GMT 41.270645 -8.848999 36,000 17 420 0
2022-09-27 20:59:28 GMT 41.264008 -8.851868 36,000 17 420 0
2022-09-27 20:59:24 GMT 41.256409 -8.855103 36,000 18 420 0
2022-09-27 20:59:21 GMT 41.251942 -8.856978 36,000 18 420 0
2022-09-27 20:59:18 GMT 41.243652 -8.860598 36,000 18 420 0
2022-09-27 20:59:15 GMT 41.239929 -8.862183 36,000 18 420 0
2022-09-27 20:59:12 GMT 41.236221 -8.863770 36,000 18 420 0
2022-09-27 20:59:09 GMT 41.230133 -8.866394 36,000 18 420 0
2022-09-27 20:59:06 GMT 41.216263 -8.872375 36,000 18 420 0
2022-09-27 20:59:03 GMT 41.216263 -8.872375 36,000 18 420 0
2022-09-27 20:59:00 GMT 41.211437 -8.874456 36,000 18 420 0
2022-09-27 20:58:56 GMT 41.199615 -8.879575 36,000 18 420 0
2022-09-27 20:58:53 GMT 41.199615 -8.879575 36,000 18 420 0
2022-09-27 20:58:50 GMT 41.194839 -8.881653 36,000 18 420 0
2022-09-27 20:58:47 GMT 41.186874 -8.885132 36,000 18 420 0
2022-09-27 20:58:43 GMT 41.180946 -8.887627 36,000 18 420 0
2022-09-27 20:58:39 GMT 41.173733 -8.890748 36,000 18 420 0
2022-09-27 20:58:36 GMT 41.169662 -8.892517 36,000 18 420 0
2022-09-27 20:58:33 GMT 41.162651 -8.895493 36,000 18 420 0
2022-09-27 20:58:28 GMT 41.154133 -8.899175 36,000 18 420 0
2022-09-27 20:58:25 GMT 41.148605 -8.901550 36,000 18 419 0
2022-09-27 20:58:22 GMT 41.141739 -8.904480 36,000 18 419 0
2022-09-27 20:58:16 GMT 41.131989 -8.908691 36,000 18 419 0
2022-09-27 20:58:12 GMT 41.124386 -8.911972 36,000 18 419 0
2022-09-27 20:58:07 GMT 41.114426 -8.916279 36,000 18 419 0
2022-09-27 20:58:04 GMT 41.109631 -8.918339 36,000 18 419 0
2022-09-27 20:58:01 GMT 41.103561 -8.920959 36,000 18 419 0
2022-09-27 20:57:58 GMT 41.097839 -8.923401 36,000 18 419 0
2022-09-27 20:57:55 GMT 41.091194 -8.926267 36,000 18 419 0
2022-09-27 20:57:52 GMT 41.086586 -8.928264 36,000 18 419 0
2022-09-27 20:57:48 GMT 41.079372 -8.931323 36,000 18 419 0
2022-09-27 20:57:44 GMT 41.072201 -8.934382 36,000 17 419 0
2022-09-27 20:57:41 GMT 41.067764 -8.936279 36,000 17 419 0
2022-09-27 20:57:36 GMT 41.055954 -8.941345 36,000 17 419 0
2022-09-27 20:57:33 GMT 41.052090 -8.942996 36,000 17 419 0
2022-09-27 20:57:30 GMT 41.046227 -8.945555 36,000 17 419 0
2022-09-27 20:57:27 GMT 41.040848 -8.947815 36,000 17 419 0
2022-09-27 20:57:24 GMT 41.034588 -8.950487 36,000 17 419 0
2022-09-27 20:57:21 GMT 41.029980 -8.952422 36,000 17 419 0
2022-09-27 20:57:18 GMT 41.023556 -8.955168 36,000 17 419 0
2022-09-27 20:57:14 GMT 41.017090 -8.957886 36,000 17 418 0
2022-09-27 20:57:11 GMT 41.010635 -8.960632 36,000 17 418 0
2022-09-27 20:57:08 GMT 41.005817 -8.962659 36,000 17 418 0
2022-09-27 20:57:05 GMT 40.998650 -8.965655 36,000 17 418 0
2022-09-27 20:57:01 GMT 40.991062 -8.968776 36,000 17 418 0
2022-09-27 20:56:57 GMT 40.985550 -8.971130 36,000 17 418 0
2022-09-27 20:56:52 GMT 40.975746 -8.975206 36,000 17 419 0
2022-09-27 20:56:49 GMT 40.970581 -8.977295 36,000 17 419 0
2022-09-27 20:56:45 GMT 40.958008 -8.982509 36,000 17 419 0
2022-09-27 20:56:42 GMT 40.958008 -8.982509 36,000 17 419 0
2022-09-27 20:56:39 GMT 40.947487 -8.986879 36,000 17 419 0
2022-09-27 20:56:36 GMT 40.947487 -8.986879 36,000 17 419 0
2022-09-27 20:56:33 GMT 40.940460 -8.989746 36,000 17 419 0
2022-09-27 20:56:30 GMT 40.934372 -8.992310 36,000 17 419 0
2022-09-27 20:56:26 GMT 40.929192 -8.994494 36,000 17 419 0
2022-09-27 20:56:22 GMT 40.919769 -8.998474 36,000 17 419 0
2022-09-27 20:56:17 GMT 40.900375 -9.006729 36,000 17 419 0
2022-09-27 20:56:11 GMT 40.900375 -9.006729 36,000 17 419 0
2022-09-27 20:56:04 GMT 40.886902 -9.012451 36,000 17 420 0
2022-09-27 20:56:01 GMT 40.881710 -9.014657 36,000 17 420 0
2022-09-27 20:55:57 GMT 40.873051 -9.018340 36,000 17 420 0
2022-09-27 20:55:54 GMT 40.867859 -9.020569 36,000 17 420 0
2022-09-27 20:55:51 GMT 40.863235 -9.022522 36,000 17 420 0
2022-09-27 20:55:46 GMT 40.855129 -9.025955 36,000 17 419 0
2022-09-27 20:55:43 GMT 40.849403 -9.028390 36,000 17 420 0
2022-09-27 20:55:40 GMT 40.844604 -9.030457 36,000 17 420 0
2022-09-27 20:55:37 GMT 40.837921 -9.033264 36,000 17 419 0
2022-09-27 20:55:34 GMT 40.832176 -9.035693 36,000 17 419 0
2022-09-27 20:55:31 GMT 40.826660 -9.038025 36,000 17 419 0
2022-09-27 20:55:28 GMT 40.820526 -9.040588 36,000 17 419 0
2022-09-27 20:55:23 GMT 40.806480 -9.046555 36,000 17 419 0
2022-09-27 20:55:20 GMT 40.806480 -9.046555 36,000 17 419 0
2022-09-27 20:55:17 GMT 40.801666 -9.048584 36,000 17 419 0
2022-09-27 20:55:14 GMT 40.795029 -9.051361 36,000 17 419 0
2022-09-27 20:55:10 GMT 40.787815 -9.054420 36,000 17 419 0
2022-09-27 20:55:06 GMT 40.779297 -9.057978 36,000 17 419 0
2022-09-27 20:55:03 GMT 40.776535 -9.059143 36,000 17 419 0
2022-09-27 20:55:00 GMT 40.768215 -9.062660 36,000 17 419 0
2022-09-27 20:54:55 GMT 40.760422 -9.065918 36,000 17 419 0
2022-09-27 20:54:52 GMT 40.754333 -9.068542 36,000 17 420 0
2022-09-27 20:54:49 GMT 40.748978 -9.070801 36,000 17 420 0
2022-09-27 20:54:41 GMT 40.733231 -9.077454 36,000 17 420 0
2022-09-27 20:54:38 GMT 40.729717 -9.078889 36,000 17 420 0
2022-09-27 20:54:35 GMT 40.720642 -9.082764 36,000 17 421 0
2022-09-27 20:54:31 GMT 40.716217 -9.084632 36,000 17 421 0
2022-09-27 20:54:28 GMT 40.709373 -9.087504 36,000 17 421 0
2022-09-27 20:54:23 GMT 40.698994 -9.091936 36,000 17 421 0
2022-09-27 20:54:20 GMT 40.696384 -9.092997 36,000 17 421 0
2022-09-27 20:54:17 GMT 40.689728 -9.095806 36,000 17 421 0
2022-09-27 20:54:14 GMT 40.683212 -9.098552 36,000 17 421 0
2022-09-27 20:54:11 GMT 40.677658 -9.100891 36,000 17 421 0
2022-09-27 20:54:08 GMT 40.672119 -9.103210 36,000 17 421 0
2022-09-27 20:54:03 GMT 40.664291 -9.106506 36,000 17 422 0
2022-09-27 20:54:00 GMT 40.657791 -9.109227 36,000 17 421 0
2022-09-27 20:53:57 GMT 40.653370 -9.111099 36,000 17 421 0
2022-09-27 20:53:52 GMT 40.643688 -9.115157 36,000 17 422 0
2022-09-27 20:53:49 GMT 40.637589 -9.117716 36,000 17 422 0
2022-09-27 20:53:46 GMT 40.633308 -9.119526 36,000 17 421 0
2022-09-27 20:53:43 GMT 40.626602 -9.122335 36,000 17 421 0
2022-09-27 20:53:40 GMT 40.619751 -9.125244 36,000 17 421 0
2022-09-27 20:53:37 GMT 40.615292 -9.127079 36,000 17 421 0
2022-09-27 20:53:32 GMT 40.604492 -9.131636 36,000 17 421 0
2022-09-27 20:53:28 GMT 40.598923 -9.133972 36,000 17 421 0
2022-09-27 20:53:25 GMT 40.594254 -9.135925 36,000 17 421 0
2022-09-27 20:53:22 GMT 40.586975 -9.138916 36,000 17 422 0
2022-09-27 20:53:19 GMT 40.581573 -9.141174 36,000 17 422 0
2022-09-27 20:53:16 GMT 40.576584 -9.143311 36,000 17 422 0
2022-09-27 20:53:12 GMT 40.567841 -9.146912 36,000 17 422 0
2022-09-27 20:53:06 GMT 40.557568 -9.151174 36,000 17 422 0
2022-09-27 20:53:01 GMT 40.547886 -9.155232 36,000 17 423 0
2022-09-27 20:52:56 GMT 40.538177 -9.159302 36,000 17 423 0
2022-09-27 20:52:51 GMT 40.529819 -9.162785 36,000 17 423 0
2022-09-27 20:52:48 GMT 40.522339 -9.165955 36,000 17 423 0
2022-09-27 20:52:45 GMT 40.519547 -9.167114 36,000 17 423 0
2022-09-27 20:52:41 GMT 40.511341 -9.170525 36,000 17 423 0
2022-09-27 20:52:38 GMT 40.504452 -9.173459 36,000 17 423 0
2022-09-27 20:52:35 GMT 40.499794 -9.175394 36,000 17 423 0
2022-09-27 20:52:31 GMT 40.491760 -9.178772 36,000 17 424 0
2022-09-27 20:52:28 GMT 40.484848 -9.181641 36,000 17 424 0
2022-09-27 20:52:25 GMT 40.481129 -9.183197 36,000 17 424 0
2022-09-27 20:52:21 GMT 40.473820 -9.186256 36,000 17 424 0
2022-09-27 20:52:18 GMT 40.468231 -9.188599 36,000 17 424 0
2022-09-27 20:52:15 GMT 40.461903 -9.191250 36,000 17 424 0
2022-09-27 20:52:11 GMT 40.455338 -9.193996 36,000 17 424 0
2022-09-27 20:52:08 GMT 40.448448 -9.196930 36,000 17 424 0
2022-09-27 20:52:04 GMT 40.442459 -9.199402 36,000 17 424 0
2022-09-27 20:52:01 GMT 40.436691 -9.201843 36,000 17 424 0
2022-09-27 20:51:57 GMT 40.427719 -9.205566 36,000 17 424 0
2022-09-27 20:51:54 GMT 40.423775 -9.207230 36,000 17 424 0
2022-09-27 20:51:51 GMT 40.417419 -9.209900 36,000 17 424 0
2022-09-27 20:51:47 GMT 40.411057 -9.212585 36,000 17 424 0
2022-09-27 20:51:44 GMT 40.404510 -9.215271 36,000 17 424 0
2022-09-27 20:51:40 GMT 40.395172 -9.219238 36,000 17 424 0
2022-09-27 20:51:36 GMT 40.389748 -9.221462 36,000 17 424 0
2022-09-27 20:51:33 GMT 40.385284 -9.223389 36,000 17 425 0
2022-09-27 20:51:30 GMT 40.377960 -9.226440 36,000 17 425 0
2022-09-27 20:51:26 GMT 40.371231 -9.229248 36,000 17 425 0
2022-09-27 20:51:23 GMT 40.365631 -9.231574 36,000 17 425 64
2022-09-27 20:51:20 GMT 40.360931 -9.233521 36,000 17 425 0
2022-09-27 20:51:16 GMT 40.351227 -9.237549 36,000 17 425 0
2022-09-27 20:51:13 GMT 40.346924 -9.239380 36,000 17 425 0
2022-09-27 20:51:10 GMT 40.340912 -9.241874 36,000 17 424 0
2022-09-27 20:51:05 GMT 40.332859 -9.245182 36,000 17 424 0
2022-09-27 20:51:02 GMT 40.327457 -9.247430 36,000 17 424 0
2022-09-27 20:50:59 GMT 40.321472 -9.249878 36,000 17 424 0
2022-09-27 20:50:56 GMT 40.313957 -9.252985 36,000 17 424 0
2022-09-27 20:50:53 GMT 40.308514 -9.255232 36,000 17 424 0
2022-09-27 20:50:50 GMT 40.303486 -9.257292 36,000 17 424 0
2022-09-27 20:50:45 GMT 40.294128 -9.261162 36,000 17 424 0
2022-09-27 20:50:41 GMT 40.287563 -9.263909 36,000 17 425 0
2022-09-27 20:50:38 GMT 40.281372 -9.266468 36,000 17 425 0
2022-09-27 20:50:35 GMT 40.274643 -9.269287 36,000 17 425 0
2022-09-27 20:50:31 GMT 40.267918 -9.272086 36,000 17 425 0
2022-09-27 20:50:28 GMT 40.260223 -9.275269 36,000 17 425 0
2022-09-27 20:50:24 GMT 40.255535 -9.277205 36,000 17 425 0
2022-09-27 20:50:19 GMT 40.245808 -9.281262 36,000 17 425 0
2022-09-27 20:50:15 GMT 40.237564 -9.284729 36,000 17 425 0
2022-09-27 20:50:12 GMT 40.231613 -9.287170 36,000 17 425 0
2022-09-27 20:50:09 GMT 40.226349 -9.289368 36,000 17 425 0
2022-09-27 20:50:05 GMT 40.218666 -9.292561 36,000 17 425 0
2022-09-27 20:50:01 GMT 40.212296 -9.295227 36,000 17 425 0
2022-09-27 20:49:57 GMT 40.205383 -9.298096 36,000 17 425 0
2022-09-27 20:49:54 GMT 40.198090 -9.301113 36,000 17 425 0
2022-09-27 20:49:50 GMT 40.190964 -9.304077 36,000 17 425 0
2022-09-27 20:49:47 GMT 40.184052 -9.306946 36,000 17 425 0
2022-09-27 20:49:44 GMT 40.179935 -9.308666 36,000 17 424 0
2022-09-27 20:49:41 GMT 40.174534 -9.310913 36,000 17 424 0
2022-09-27 20:49:38 GMT 40.168716 -9.313348 36,000 17 424 0
2022-09-27 20:49:34 GMT 40.159744 -9.317078 36,000 17 424 0
2022-09-27 20:49:31 GMT 40.155075 -9.318970 36,000 17 423 0
2022-09-27 20:49:28 GMT 40.150188 -9.321026 36,000 17 423 0
2022-09-27 20:49:23 GMT 40.140133 -9.325145 36,000 17 423 0
2022-09-27 20:49:19 GMT 40.133198 -9.328017 36,000 17 424 0
2022-09-27 20:49:15 GMT 40.126465 -9.330811 36,000 17 424 0
2022-09-27 20:49:12 GMT 40.121017 -9.333008 36,000 17 423 0
2022-09-27 20:49:08 GMT 40.111691 -9.336818 36,000 17 424 0
2022-09-27 20:49:05 GMT 40.108150 -9.338316 36,000 17 424 0
2022-09-27 20:49:02 GMT 40.102703 -9.340501 36,000 17 423 -64
2022-09-27 20:48:59 GMT 40.096344 -9.343140 36,000 17 423 0
2022-09-27 20:48:56 GMT 40.088287 -9.346436 36,000 17 423 0
2022-09-27 20:48:52 GMT 40.081741 -9.349121 36,000 17 423 0
2022-09-27 20:48:47 GMT 40.073181 -9.352661 36,000 17 423 0
2022-09-27 20:48:44 GMT 40.069244 -9.354309 36,000 17 423 0
2022-09-27 20:48:41 GMT 40.062698 -9.356995 36,000 17 423 0
2022-09-27 20:48:37 GMT 40.054848 -9.360227 36,000 17 423 64
2022-09-27 20:48:33 GMT 40.046238 -9.363785 36,000 17 423 0
2022-09-27 20:48:30 GMT 40.041779 -9.365601 36,000 17 423 0
2022-09-27 20:48:27 GMT 40.035965 -9.367981 36,000 17 423 0
2022-09-27 20:48:23 GMT 40.027954 -9.371338 36,000 17 423 0
2022-09-27 20:48:20 GMT 40.024384 -9.372803 36,000 17 423 0
2022-09-27 20:48:17 GMT 40.016739 -9.375916 36,000 17 423 0
2022-09-27 20:48:12 GMT 40.007599 -9.379702 36,000 17 423 0
2022-09-27 20:48:09 GMT 40.000854 -9.382446 36,000 17 423 0
2022-09-27 20:48:06 GMT 39.997124 -9.384010 36,000 17 423 0
2022-09-27 20:48:02 GMT 39.989456 -9.387146 36,000 17 423 0
2022-09-27 20:47:59 GMT 39.984787 -9.389038 36,000 17 423 0
2022-09-27 20:47:56 GMT 39.977665 -9.391937 36,000 17 423 0
2022-09-27 20:47:52 GMT 39.970413 -9.394958 36,000 17 423 0
2022-09-27 20:47:49 GMT 39.965927 -9.396790 36,000 17 423 0
2022-09-27 20:47:46 GMT 39.959557 -9.399428 36,000 17 423 0
2022-09-27 20:47:41 GMT 39.950043 -9.403320 36,000 17 422 0
2022-09-27 20:47:37 GMT 39.943497 -9.406006 36,000 17 422 0
2022-09-27 20:47:33 GMT 39.936790 -9.408791 36,000 17 422 0
2022-09-27 20:47:30 GMT 39.928413 -9.412225 36,000 17 422 0
2022-09-27 20:47:26 GMT 39.923759 -9.414160 36,000 17 422 0
2022-09-27 20:47:22 GMT 39.909794 -9.419922 36,000 17 422 0
2022-09-27 20:47:19 GMT 39.909794 -9.419922 36,000 17 422 0
2022-09-27 20:47:15 GMT 39.901199 -9.423404 36,000 17 422 0
2022-09-27 20:47:11 GMT 39.894516 -9.426210 36,000 17 421 0
2022-09-27 20:47:08 GMT 39.887634 -9.429016 36,000 17 421 0
2022-09-27 20:47:05 GMT 39.883163 -9.430847 36,000 17 421 0
2022-09-27 20:47:00 GMT 39.873856 -9.434692 36,000 17 421 0
2022-09-27 20:46:57 GMT 39.867737 -9.437196 36,000 17 421 0
2022-09-27 20:46:54 GMT 39.864033 -9.438721 36,000 17 421 0
2022-09-27 20:46:50 GMT 39.853775 -9.442928 36,000 17 421 0
2022-09-27 20:46:47 GMT 39.849319 -9.444763 36,000 17 420 0
2022-09-27 20:46:44 GMT 39.844711 -9.446690 36,000 17 420 0
2022-09-27 20:46:40 GMT 39.837448 -9.449646 36,000 17 420 0
2022-09-27 20:46:37 GMT 39.826355 -9.454213 36,000 17 420 0
2022-09-27 20:46:34 GMT 39.826355 -9.454213 36,000 17 420 0
2022-09-27 20:46:31 GMT 39.818737 -9.457336 36,000 17 420 0
2022-09-27 20:46:25 GMT 39.807816 -9.461856 36,000 17 420 0
2022-09-27 20:46:18 GMT 39.797424 -9.466095 36,000 17 419 0
2022-09-27 20:46:15 GMT 39.790970 -9.468782 36,000 17 417 0
2022-09-27 20:46:08 GMT 39.771347 -9.476807 36,000 17 419 0
2022-09-27 20:46:04 GMT 39.771347 -9.476807 36,000 17 419 0
2022-09-27 20:45:59 GMT 39.760803 -9.481082 36,000 17 419 0
2022-09-27 20:45:55 GMT 39.752655 -9.484425 36,000 17 418 0
2022-09-27 20:45:51 GMT 39.746201 -9.487053 36,000 17 417 0
2022-09-27 20:45:47 GMT 39.738808 -9.490051 36,000 17 418 0
2022-09-27 20:45:44 GMT 39.733292 -9.492307 36,000 17 418 0
2022-09-27 20:45:38 GMT 39.717812 -9.498596 36,000 17 417 0
2022-09-27 20:45:35 GMT 39.717812 -9.498596 36,000 17 417 0
2022-09-27 20:45:32 GMT 39.711342 -9.501221 36,000 17 417 0
2022-09-27 20:45:29 GMT 39.706032 -9.503357 36,000 17 417 0
2022-09-27 20:45:26 GMT 39.700306 -9.505676 36,000 17 417 0
2022-09-27 20:45:23 GMT 39.695892 -9.507473 36,000 17 417 0
2022-09-27 20:45:20 GMT 39.690216 -9.509801 36,000 17 416 0
2022-09-27 20:45:17 GMT 39.683968 -9.512390 36,000 17 416 0
2022-09-27 20:45:14 GMT 39.676254 -9.515533 36,000 17 416 0
2022-09-27 20:45:09 GMT 39.661900 -9.521362 36,000 17 416 0
2022-09-27 20:45:06 GMT 39.661900 -9.521362 36,000 17 416 0
2022-09-27 20:45:03 GMT 39.657337 -9.523193 36,000 17 416 0
2022-09-27 20:44:59 GMT 39.651077 -9.525744 36,000 17 416 0
2022-09-27 20:44:56 GMT 39.644489 -9.528442 36,000 17 416 0
2022-09-27 20:44:53 GMT 39.640629 -9.530029 36,000 17 416 0
2022-09-27 20:44:50 GMT 39.632713 -9.533203 36,000 17 416 0
2022-09-27 20:44:44 GMT 39.623016 -9.537208 36,000 17 416 64
2022-09-27 20:44:41 GMT 39.617340 -9.539536 36,000 17 416 64
2022-09-27 20:44:38 GMT 39.611252 -9.541984 36,000 17 416 0
2022-09-27 20:44:35 GMT 39.605942 -9.544134 36,000 17 416 0
2022-09-27 20:44:27 GMT 39.592911 -9.549438 36,000 17 416 0
2022-09-27 20:44:23 GMT 39.585415 -9.552490 36,000 17 416 0
2022-09-27 20:44:16 GMT 39.571106 -9.558344 36,000 17 415 0
2022-09-27 20:44:13 GMT 39.566162 -9.560315 36,000 17 415 0
2022-09-27 20:44:08 GMT 39.557346 -9.563965 36,000 17 415 0
2022-09-27 20:44:03 GMT 39.547802 -9.567810 36,000 17 415 0
2022-09-27 20:43:58 GMT 39.539383 -9.571301 36,000 17 415 0
2022-09-27 20:43:55 GMT 39.532253 -9.574219 36,000 17 415 0
2022-09-27 20:43:52 GMT 39.528202 -9.575867 36,000 17 415 0
2022-09-27 20:43:48 GMT 39.520706 -9.578944 36,000 17 415 0
2022-09-27 20:43:43 GMT 39.512283 -9.582336 36,000 17 415 0
2022-09-27 20:43:38 GMT 39.501434 -9.586765 36,000 17 415 64
2022-09-27 20:43:32 GMT 39.491009 -9.591003 36,000 17 416 64
2022-09-27 20:43:28 GMT 39.484211 -9.593750 36,000 17 415 0
2022-09-27 20:43:22 GMT 39.472092 -9.598647 36,000 17 415 0
2022-09-27 20:43:17 GMT 39.463680 -9.602112 36,000 17 415 -64
2022-09-27 20:43:14 GMT 39.453598 -9.606171 36,000 17 415 0
2022-09-27 20:43:11 GMT 39.453598 -9.606171 36,000 17 415 0
2022-09-27 20:43:06 GMT 39.441105 -9.611206 36,000 17 415 0
2022-09-27 20:43:03 GMT 39.436523 -9.613037 36,000 17 415 0
2022-09-27 20:43:00 GMT 39.430481 -9.615485 36,000 17 415 0
2022-09-27 20:42:54 GMT 39.416340 -9.621216 36,000 17 414 0
2022-09-27 20:42:51 GMT 39.416340 -9.621216 36,000 17 415 0
2022-09-27 20:42:46 GMT 39.401115 -9.627319 36,000 17 415 0
2022-09-27 20:42:43 GMT 39.401115 -9.627319 36,000 17 415 0
2022-09-27 20:42:40 GMT 39.396553 -9.629211 36,000 17 415 0
2022-09-27 20:42:37 GMT 39.390873 -9.631531 36,000 17 415 0
2022-09-27 20:42:34 GMT 39.382633 -9.634888 36,000 17 416 0
2022-09-27 20:42:31 GMT 39.378937 -9.636323 36,000 17 415 0
2022-09-27 20:42:28 GMT 39.372528 -9.638951 36,000 17 415 0
2022-09-27 20:42:23 GMT 39.363922 -9.642414 36,000 17 415 0
2022-09-27 20:42:20 GMT 39.359711 -9.644085 36,000 17 415 0
2022-09-27 20:42:17 GMT 39.354355 -9.646235 36,000 17 415 0
2022-09-27 20:42:11 GMT 39.340412 -9.651855 36,000 17 415 0
2022-09-27 20:42:07 GMT 39.334900 -9.654057 36,000 17 415 0
2022-09-27 20:42:03 GMT 39.327759 -9.656923 36,000 17 415 0
2022-09-27 20:42:00 GMT 39.322037 -9.659251 36,000 17 415 0
2022-09-27 20:41:56 GMT 39.315628 -9.661819 36,000 17 416 0
2022-09-27 20:41:53 GMT 39.308258 -9.664804 36,000 17 416 0
2022-09-27 20:41:50 GMT 39.303822 -9.666565 36,000 17 417 0
2022-09-27 20:41:46 GMT 39.295029 -9.670118 36,000 17 417 0
2022-09-27 20:41:42 GMT 39.289482 -9.672363 36,000 17 416 0
2022-09-27 20:41:39 GMT 39.284683 -9.674298 36,000 17 417 0
2022-09-27 20:41:35 GMT 39.275890 -9.677856 36,000 17 416 0
2022-09-27 20:41:32 GMT 39.271820 -9.679433 36,000 17 416 0
2022-09-27 20:41:29 GMT 39.260201 -9.684143 36,000 17 417 0
2022-09-27 20:41:26 GMT 39.251907 -9.687434 36,000 17 418 0
2022-09-27 20:41:22 GMT 39.251907 -9.687434 36,000 17 418 0
2022-09-27 20:41:19 GMT 39.247513 -9.689225 36,000 17 418 0
2022-09-27 20:41:16 GMT 39.242157 -9.691374 36,000 17 418 0
2022-09-27 20:41:12 GMT 39.231812 -9.695554 36,000 17 418 0
2022-09-27 20:41:09 GMT 39.228127 -9.697021 36,000 17 418 0
2022-09-27 20:41:06 GMT 39.222610 -9.699256 36,000 17 418 0
2022-09-27 20:41:02 GMT 39.215931 -9.701965 36,000 17 419 0
2022-09-27 20:40:59 GMT 39.209656 -9.704451 36,000 17 419 0
2022-09-27 20:40:56 GMT 39.204300 -9.706600 36,000 17 420 0
2022-09-27 20:40:50 GMT 39.191910 -9.711609 36,000 17 419 0
2022-09-27 20:40:46 GMT 39.185440 -9.714233 36,000 17 420 0
2022-09-27 20:40:42 GMT 39.178024 -9.717228 36,000 17 420 0
2022-09-27 20:40:39 GMT 39.170963 -9.720032 36,000 17 420 0
2022-09-27 20:40:36 GMT 39.167099 -9.721619 36,000 17 420 0
2022-09-27 20:40:32 GMT 39.159668 -9.724572 36,000 17 420 0
2022-09-27 20:40:28 GMT 39.152061 -9.727661 36,000 17 420 0
2022-09-27 20:40:25 GMT 39.147221 -9.729614 36,000 17 421 0
2022-09-27 20:40:22 GMT 39.139400 -9.732727 36,000 17 421 0
2022-09-27 20:40:19 GMT 39.136841 -9.733765 36,000 17 421 0
2022-09-27 20:40:15 GMT 39.128632 -9.737051 36,000 17 420 0
2022-09-27 20:40:11 GMT 39.114914 -9.742554 36,000 17 421 0
2022-09-27 20:40:08 GMT 39.114914 -9.742554 36,000 17 421 0
2022-09-27 20:40:05 GMT 39.111004 -9.744141 36,000 17 421 0
2022-09-27 20:40:00 GMT 39.100018 -9.748535 36,000 17 420 0
2022-09-27 20:39:57 GMT 39.095581 -9.750307 36,000 17 420 0
2022-09-27 20:39:54 GMT 39.090179 -9.752456 36,000 17 420 0
2022-09-27 20:39:51 GMT 39.084045 -9.754904 36,000 17 421 0
2022-09-27 20:39:48 GMT 39.077347 -9.757629 36,000 17 421 0
2022-09-27 20:39:41 GMT 39.064865 -9.762606 36,000 17 422 0
2022-09-27 20:39:37 GMT 39.058167 -9.765259 36,000 17 422 0
2022-09-27 20:39:34 GMT 39.052963 -9.767383 36,000 17 422 0
2022-09-27 20:39:30 GMT 39.045876 -9.770203 36,000 17 422 0
2022-09-27 20:39:27 GMT 39.038956 -9.772996 36,000 17 422 0
2022-09-27 20:39:24 GMT 39.033188 -9.775265 36,000 17 422 0
2022-09-27 20:39:21 GMT 39.028931 -9.776978 36,000 17 422 0
2022-09-27 20:39:18 GMT 39.020321 -9.780396 36,000 17 422 0
2022-09-27 20:39:15 GMT 39.015850 -9.782227 36,000 17 422 0
2022-09-27 20:39:11 GMT 39.008240 -9.785236 36,000 17 422 0
2022-09-27 20:39:07 GMT 38.994064 -9.790955 36,000 17 422 0
2022-09-27 20:39:03 GMT 38.994064 -9.790955 36,000 17 422 0
2022-09-27 20:39:00 GMT 38.988464 -9.793177 36,000 17 422 64
2022-09-27 20:38:57 GMT 38.982285 -9.795593 36,000 17 422 64
2022-09-27 20:38:54 GMT 38.978374 -9.797180 36,000 17 422 64
2022-09-27 20:38:51 GMT 38.971664 -9.799864 36,000 17 423 0
2022-09-27 20:38:48 GMT 38.966263 -9.802014 36,000 17 423 0
2022-09-27 20:38:45 GMT 38.961010 -9.804138 36,000 17 423 0
2022-09-27 20:38:40 GMT 38.952255 -9.807626 36,000 17 423 0
2022-09-27 20:38:37 GMT 38.944977 -9.810492 36,000 17 423 0
2022-09-27 20:38:34 GMT 38.939575 -9.812702 36,000 17 423 0
2022-09-27 20:38:30 GMT 38.932472 -9.815491 36,000 17 423 0
2022-09-27 20:38:27 GMT 38.925911 -9.818115 36,000 17 423 0
2022-09-27 20:38:24 GMT 38.922180 -9.819628 36,000 17 423 0
2022-09-27 20:38:19 GMT 38.912689 -9.823425 36,000 17 423 0
2022-09-27 20:38:15 GMT 38.903687 -9.826972 36,000 17 423 0
2022-09-27 20:38:09 GMT 38.893044 -9.831238 36,000 17 423 0
2022-09-27 20:38:06 GMT 38.888214 -9.833122 36,000 17 423 0
2022-09-27 20:38:03 GMT 38.882568 -9.835388 36,000 17 423 0
2022-09-27 20:38:00 GMT 38.875122 -9.838376 36,000 17 423 0
2022-09-27 20:37:57 GMT 38.871399 -9.839844 36,000 17 423 0
2022-09-27 20:37:54 GMT 38.865005 -9.842377 36,000 17 423 0
2022-09-27 20:37:49 GMT 38.856628 -9.845720 36,000 17 423 0
2022-09-27 20:37:44 GMT 38.846306 -9.849854 36,000 17 423 0
2022-09-27 20:37:40 GMT 38.839043 -9.852722 36,000 17 423 0
2022-09-27 20:37:37 GMT 38.832687 -9.855274 36,000 17 423 0
2022-09-27 20:37:34 GMT 38.826141 -9.857841 36,000 17 423 0
2022-09-27 20:37:31 GMT 38.823124 -9.859070 36,000 17 423 0
2022-09-27 20:37:29 GMT 38.818268 -9.861006 36,000 17 423 0
2022-09-27 20:37:26 GMT 38.814514 -9.862498 36,000 17 423 0
2022-09-27 20:37:23 GMT 38.808182 -9.864990 36,000 17 423 0
2022-09-27 20:37:20 GMT 38.801239 -9.867753 36,000 17 423 0
2022-09-27 20:37:17 GMT 38.797333 -9.869324 36,000 17 423 0
2022-09-27 20:37:14 GMT 38.790939 -9.871873 36,000 17 423 0
2022-09-27 20:37:09 GMT 38.781410 -9.875671 36,000 17 423 0
2022-09-27 20:37:06 GMT 38.775055 -9.878202 36,000 17 423 0
2022-09-27 20:37:03 GMT 38.769634 -9.880371 36,000 17 423 0
2022-09-27 20:36:59 GMT 38.762192 -9.883337 36,000 17 423 0
2022-09-27 20:36:56 GMT 38.755436 -9.885986 36,000 17 423 64
2022-09-27 20:36:52 GMT 38.750782 -9.887817 36,000 17 423 64
2022-09-27 20:36:49 GMT 38.742542 -9.891113 36,000 17 423 0
2022-09-27 20:36:45 GMT 38.737328 -9.893188 36,000 17 423 0
2022-09-27 20:36:42 GMT 38.732300 -9.895203 36,000 17 422 0
2022-09-27 20:36:39 GMT 38.724060 -9.898438 36,000 17 422 0
2022-09-27 20:36:35 GMT 38.719032 -9.900452 36,000 17 422 0
2022-09-27 20:36:32 GMT 38.713215 -9.902771 36,000 17 421 0
2022-09-27 20:36:27 GMT 38.702412 -9.907043 36,000 17 422 0
2022-09-27 20:36:24 GMT 38.697014 -9.909180 36,000 17 421 0
2022-09-27 20:36:21 GMT 38.691559 -9.911340 36,000 17 421 0
2022-09-27 20:36:19 GMT 38.687668 -9.912892 36,000 17 421 0
2022-09-27 20:36:13 GMT 38.675552 -9.917664 36,000 17 421 0
2022-09-27 20:36:08 GMT 38.667873 -9.920654 36,000 17 421 0
2022-09-27 20:36:05 GMT 38.656700 -9.925110 36,000 17 421 0
2022-09-27 20:36:02 GMT 38.656700 -9.925110 36,000 17 421 0
2022-09-27 20:35:58 GMT 38.648506 -9.928345 36,000 17 421 0
2022-09-27 20:35:55 GMT 38.642689 -9.930603 36,000 17 421 0
2022-09-27 20:35:52 GMT 38.637131 -9.932835 36,000 17 421 0
2022-09-27 20:35:48 GMT 38.627975 -9.936417 36,000 17 421 0
2022-09-27 20:35:44 GMT 38.622208 -9.938686 36,000 17 421 0
2022-09-27 20:35:41 GMT 38.618271 -9.940239 36,000 17 421 0
2022-09-27 20:35:38 GMT 38.605591 -9.945254 36,000 17 421 0
2022-09-27 20:35:35 GMT 38.605591 -9.945254 36,000 17 421 0
2022-09-27 20:35:32 GMT 38.598324 -9.948120 36,000 17 421 0
2022-09-27 20:35:28 GMT 38.592548 -9.950378 36,000 17 421 0
2022-09-27 20:35:24 GMT 38.586594 -9.952718 36,000 17 421 0
2022-09-27 20:35:20 GMT 38.578949 -9.955763 36,000 17 420 0
2022-09-27 20:35:17 GMT 38.571304 -9.958748 36,000 17 420 0
2022-09-27 20:35:14 GMT 38.561081 -9.962830 36,000 17 421 0
2022-09-27 20:35:11 GMT 38.561081 -9.962830 36,000 17 421 0
2022-09-27 20:35:07 GMT 38.552124 -9.966331 36,000 17 420 0
2022-09-27 20:35:04 GMT 38.548416 -9.967834 36,000 17 420 0
2022-09-27 20:35:01 GMT 38.542274 -9.970215 36,000 17 420 0
2022-09-27 20:34:56 GMT 38.532963 -9.973938 36,000 17 420 0
2022-09-27 20:34:53 GMT 38.527561 -9.976013 36,000 17 420 0
2022-09-27 20:34:50 GMT 38.523094 -9.977783 36,000 17 420 0
2022-09-27 20:34:46 GMT 38.514156 -9.981323 36,000 17 420 0
2022-09-27 20:34:41 GMT 38.504288 -9.985199 36,000 17 420 0
2022-09-27 20:34:35 GMT 38.493896 -9.989319 36,000 17 420 0
2022-09-27 20:34:32 GMT 38.488861 -9.991289 36,000 17 420 0
2022-09-27 20:34:29 GMT 38.484238 -9.993140 36,000 17 420 0
2022-09-27 20:34:26 GMT 38.475494 -9.996544 36,000 17 420 0
2022-09-27 20:34:23 GMT 38.472702 -9.997618 36,000 17 420 0
2022-09-27 20:34:20 GMT 38.466202 -10.000186 36,000 17 420 0
2022-09-27 20:34:15 GMT 38.452423 -10.005619 36,000 17 420 0
2022-09-27 20:34:12 GMT 38.446888 -10.007812 36,000 17 420 0
2022-09-27 20:34:09 GMT 38.446888 -10.007812 36,000 17 420 0
2022-09-27 20:34:06 GMT 38.440567 -10.010276 36,000 17 419 0
2022-09-27 20:34:03 GMT 38.434971 -10.012451 36,000 17 419 0
2022-09-27 20:34:00 GMT 38.428299 -10.015113 36,000 17 419 0
2022-09-27 20:33:56 GMT 38.421425 -10.017761 36,000 17 419 0
2022-09-27 20:33:53 GMT 38.416210 -10.019836 36,000 17 419 0
2022-09-27 20:33:49 GMT 38.408436 -10.022875 36,000 17 419 0
2022-09-27 20:33:45 GMT 38.399731 -10.026338 36,000 17 419 0
2022-09-27 20:33:42 GMT 38.395447 -10.028010 36,000 17 419 0
2022-09-27 20:33:38 GMT 38.389301 -10.030398 36,000 17 419 0
2022-09-27 20:33:35 GMT 38.383949 -10.032548 36,000 17 419 0
2022-09-27 20:33:32 GMT 38.378357 -10.034725 36,000 17 419 0
2022-09-27 20:33:28 GMT 38.370960 -10.037623 36,000 17 419 0
2022-09-27 20:33:25 GMT 38.364815 -10.040011 36,000 17 419 0
2022-09-27 20:33:22 GMT 38.359093 -10.042220 36,000 17 419 0
2022-09-27 20:33:18 GMT 38.352585 -10.044776 36,000 17 419 0
2022-09-27 20:33:15 GMT 38.345764 -10.047465 36,000 17 419 0
2022-09-27 20:33:12 GMT 38.340191 -10.049624 36,000 17 419 0
2022-09-27 20:33:08 GMT 38.333721 -10.052192 36,000 17 419 0
2022-09-27 20:33:05 GMT 38.327202 -10.054699 36,000 17 419 0
2022-09-27 20:33:02 GMT 38.321476 -10.056968 36,000 17 419 0
2022-09-27 20:32:59 GMT 38.315006 -10.059476 36,000 17 419 0
2022-09-27 20:32:55 GMT 38.298851 -10.065805 36,000 17 419 0
2022-09-27 20:32:50 GMT 38.298851 -10.065805 36,000 17 419 0
2022-09-27 20:32:47 GMT 38.294430 -10.067537 36,000 17 419 0
2022-09-27 20:32:44 GMT 38.288498 -10.069846 36,000 17 419 0
2022-09-27 20:32:41 GMT 38.283829 -10.071658 36,000 17 419 0
2022-09-27 20:32:38 GMT 38.277740 -10.074054 36,000 17 419 0
2022-09-27 20:32:35 GMT 38.271973 -10.076333 36,000 17 419 0
2022-09-27 20:32:31 GMT 38.264923 -10.079079 36,000 17 419 0
2022-09-27 20:32:28 GMT 38.258057 -10.081768 36,000 17 419 0
2022-09-27 20:32:25 GMT 38.252533 -10.083897 36,000 17 419 0
2022-09-27 20:32:21 GMT 38.246014 -10.086464 36,000 17 419 0
2022-09-27 20:32:18 GMT 38.233028 -10.091539 36,000 17 419 0
2022-09-27 20:32:15 GMT 38.233028 -10.091539 36,000 17 419 0
2022-09-27 20:32:11 GMT 38.227478 -10.093689 36,000 17 419 0
2022-09-27 20:32:07 GMT 38.219528 -10.096854 36,000 17 419 0
2022-09-27 20:32:04 GMT 38.213928 -10.099007 36,000 17 419 0
2022-09-27 20:32:00 GMT 38.207611 -10.101511 36,000 17 419 0
2022-09-27 20:31:57 GMT 38.195206 -10.106370 36,000 17 419 0
2022-09-27 20:31:54 GMT 38.195206 -10.106370 36,000 17 419 0
2022-09-27 20:31:51 GMT 38.181633 -10.111661 36,000 17 420 0
2022-09-27 20:31:47 GMT 38.181633 -10.111661 36,000 17 420 0
2022-09-27 20:31:44 GMT 38.177162 -10.113393 36,000 17 420 0
2022-09-27 20:31:40 GMT 38.169571 -10.116363 36,000 17 420 0
2022-09-27 20:31:36 GMT 38.160828 -10.119752 36,000 17 420 0
2022-09-27 20:31:33 GMT 38.155983 -10.121632 36,000 17 420 0
2022-09-27 20:31:29 GMT 38.140575 -10.127663 36,000 17 420 0
2022-09-27 20:31:25 GMT 38.132008 -10.131007 36,000 17 420 0
2022-09-27 20:31:20 GMT 38.132008 -10.131007 36,000 17 420 0
2022-09-27 20:31:17 GMT 38.126236 -10.133276 36,000 17 420 0
2022-09-27 20:31:13 GMT 38.119392 -10.135962 36,000 17 420 0
2022-09-27 20:31:10 GMT 38.113449 -10.138219 36,000 17 420 0
2022-09-27 20:31:07 GMT 38.108414 -10.140206 36,000 17 420 0
2022-09-27 20:31:04 GMT 38.101749 -10.142769 36,000 17 420 0
2022-09-27 20:30:57 GMT 38.088181 -10.148095 36,000 17 419 0
2022-09-27 20:30:53 GMT 38.082245 -10.150412 36,000 17 419 0
2022-09-27 20:30:49 GMT 38.075546 -10.153003 36,000 17 419 0
2022-09-27 20:30:46 GMT 38.070511 -10.154932 36,000 17 419 0
2022-09-27 20:30:43 GMT 38.064228 -10.157398 36,000 17 419 0
2022-09-27 20:30:39 GMT 38.056778 -10.160250 36,000 17 419 0
2022-09-27 20:30:36 GMT 38.044910 -10.164861 36,000 17 419 0
2022-09-27 20:30:33 GMT 38.044910 -10.164861 36,000 17 419 0
2022-09-27 20:30:28 GMT 38.036728 -10.168022 36,000 17 419 0
2022-09-27 20:30:25 GMT 38.028214 -10.171353 36,000 17 419 0
2022-09-27 20:30:22 GMT 38.025238 -10.172522 36,000 17 419 0
2022-09-27 20:30:19 GMT 38.019306 -10.174773 36,000 17 419 0
2022-09-27 20:30:16 GMT 38.012833 -10.177314 36,000 17 419 0
2022-09-27 20:30:13 GMT 38.007431 -10.179417 36,000 17 419 0
2022-09-27 20:30:08 GMT 37.998173 -10.183013 36,000 17 419 0
2022-09-27 20:30:05 GMT 37.992027 -10.185401 36,000 17 419 0
2022-09-27 20:30:02 GMT 37.988342 -10.186839 36,000 17 419 0
2022-09-27 20:29:59 GMT 37.979828 -10.190178 36,000 17 419 0
2022-09-27 20:29:53 GMT 37.970192 -10.193939 36,000 17 419 0
2022-09-27 20:29:48 GMT 37.962559 -10.196925 36,000 17 418 0
2022-09-27 20:29:45 GMT 37.955715 -10.199552 36,000 17 418 0
2022-09-27 20:29:41 GMT 37.946640 -10.203085 36,000 17 418 0
2022-09-27 20:29:38 GMT 37.943665 -10.204254 36,000 17 418 0
2022-09-27 20:29:34 GMT 37.935001 -10.207612 36,000 17 418 0
2022-09-27 20:29:31 GMT 37.931087 -10.209165 36,000 17 418 0
2022-09-27 20:29:28 GMT 37.924805 -10.211613 36,000 17 418 0
2022-09-27 20:29:25 GMT 37.917938 -10.214246 36,000 17 418 0
2022-09-27 20:29:22 GMT 37.913315 -10.216058 36,000 17 418 0
2022-09-27 20:29:17 GMT 37.894825 -10.223196 36,000 16 418 0
2022-09-27 20:29:12 GMT 37.894825 -10.223196 36,000 16 418 0
2022-09-27 20:29:08 GMT 37.887238 -10.226122 36,000 16 418 0
2022-09-27 20:29:03 GMT 37.879089 -10.229287 36,000 16 418 0
2022-09-27 20:29:00 GMT 37.873901 -10.231252 36,000 16 418 0
2022-09-27 20:28:57 GMT 37.867779 -10.233645 36,000 16 418 0
2022-09-27 20:28:52 GMT 37.856327 -10.238064 36,000 17 418 0
2022-09-27 20:28:47 GMT 37.849136 -10.240836 36,000 17 418 0
2022-09-27 20:28:44 GMT 37.841709 -10.243676 36,000 17 418 0
2022-09-27 20:28:40 GMT 37.836548 -10.245686 36,000 17 418 0
2022-09-27 20:28:37 GMT 37.830460 -10.248082 36,000 16 418 0
2022-09-27 20:28:33 GMT 37.822128 -10.251238 36,000 16 418 0
2022-09-27 20:28:30 GMT 37.818237 -10.252757 36,000 16 418 0
2022-09-27 20:28:24 GMT 37.806190 -10.257409 36,000 17 418 0
2022-09-27 20:28:20 GMT 37.799721 -10.259857 36,000 17 418 0
2022-09-27 20:28:17 GMT 37.792690 -10.262604 36,000 17 418 0
2022-09-27 20:28:12 GMT 37.778091 -10.268301 36,000 17 418 0
2022-09-27 20:28:09 GMT 37.778091 -10.268301 36,000 17 418 0
2022-09-27 20:28:06 GMT 37.773468 -10.270055 36,000 17 418 0
2022-09-27 20:28:02 GMT 37.765137 -10.273269 36,000 17 418 0
2022-09-27 20:27:59 GMT 37.759171 -10.275560 36,000 17 418 0
2022-09-27 20:27:56 GMT 37.754936 -10.277232 36,000 17 418 0
2022-09-27 20:27:53 GMT 37.747719 -10.280039 36,000 17 419 0
2022-09-27 20:27:50 GMT 37.743256 -10.281742 36,000 17 419 0
2022-09-27 20:27:46 GMT 37.735847 -10.284636 36,000 17 419 0
2022-09-27 20:27:41 GMT 37.725266 -10.288696 36,000 17 419 0
2022-09-27 20:27:36 GMT 37.717880 -10.291562 36,000 17 419 0
2022-09-27 20:27:30 GMT 37.706753 -10.295802 36,000 16 419 0
2022-09-27 20:27:26 GMT 37.698944 -10.298806 36,000 16 419 0
2022-09-27 20:27:23 GMT 37.691719 -10.301593 36,000 16 419 0
2022-09-27 20:27:20 GMT 37.688187 -10.302955 36,000 16 419 0
2022-09-27 20:27:16 GMT 37.679848 -10.306131 36,000 16 419 0
2022-09-27 20:27:11 GMT 37.669464 -10.310132 36,000 16 419 0
2022-09-27 20:27:08 GMT 37.665939 -10.311429 36,000 16 419 0
2022-09-27 20:27:05 GMT 37.660217 -10.313649 36,000 16 419 0
2022-09-27 20:26:58 GMT 37.647587 -10.318491 36,000 17 419 0
2022-09-27 20:26:55 GMT 37.641266 -10.320896 36,000 17 419 0
2022-09-27 20:26:50 GMT 37.631432 -10.324641 36,000 16 419 0
2022-09-27 20:26:46 GMT 37.625839 -10.326798 36,000 16 420 0
2022-09-27 20:26:44 GMT 37.621216 -10.328609 36,000 17 420 0
2022-09-27 20:26:41 GMT 37.615082 -10.330947 36,000 16 420 0
2022-09-27 20:26:38 GMT 37.609505 -10.333060 36,000 16 420 0
2022-09-27 20:26:35 GMT 37.603733 -10.335269 36,000 16 420 0
2022-09-27 20:26:30 GMT 37.593704 -10.339128 36,000 16 420 0
2022-09-27 20:26:24 GMT 37.584778 -10.342518 36,000 16 421 0
2022-09-27 20:26:21 GMT 37.577293 -10.345359 36,000 16 421 0
2022-09-27 20:26:17 GMT 37.571522 -10.347569 36,000 16 421 0
2022-09-27 20:26:14 GMT 37.565186 -10.349998 36,000 16 422 0
2022-09-27 20:26:10 GMT 37.551365 -10.355271 36,000 16 422 0
2022-09-27 20:26:07 GMT 37.551365 -10.355271 36,000 16 422 0
2022-09-27 20:26:02 GMT 37.534744 -10.361685 36,000 16 423 0
2022-09-27 20:25:58 GMT 37.534744 -10.361685 36,000 16 423 0
2022-09-27 20:25:54 GMT 37.527237 -10.364490 36,000 16 423 -64
2022-09-27 20:25:51 GMT 37.515099 -10.369183 36,000 16 423 0
2022-09-27 20:25:47 GMT 37.515099 -10.369183 36,000 16 423 0
2022-09-27 20:25:44 GMT 37.508331 -10.371737 36,000 17 423 0
2022-09-27 20:25:38 GMT 37.497269 -10.375990 36,000 17 423 0
2022-09-27 20:25:34 GMT 37.489059 -10.379158 36,000 17 423 0
2022-09-27 20:25:31 GMT 37.483444 -10.381304 36,000 17 423 0
2022-09-27 20:25:27 GMT 37.477623 -10.383573 36,000 17 423 0
2022-09-27 20:25:23 GMT 37.469757 -10.386558 36,000 17 423 0
2022-09-27 20:25:20 GMT 37.462967 -10.389151 36,000 16 424 0
2022-09-27 20:25:17 GMT 37.458481 -10.390904 36,000 16 424 0
2022-09-27 20:25:15 GMT 37.453812 -10.392716 36,000 16 424 0
2022-09-27 20:25:12 GMT 37.449463 -10.394352 36,000 16 424 0
2022-09-27 20:25:08 GMT 37.440849 -10.397664 36,000 16 424 0
2022-09-27 20:25:03 GMT 37.431656 -10.401189 36,000 16 424 0
2022-09-27 20:25:00 GMT 37.427486 -10.402739 36,000 16 424 0
2022-09-27 20:24:57 GMT 37.421852 -10.404889 36,000 16 424 0
2022-09-27 20:24:52 GMT 37.412079 -10.408591 36,000 16 425 0
2022-09-27 20:24:47 GMT 37.402679 -10.412176 36,000 16 425 0
2022-09-27 20:24:43 GMT 37.394028 -10.415507 36,000 16 425 0
2022-09-27 20:24:39 GMT 37.385170 -10.418860 36,000 16 425 0
2022-09-27 20:24:36 GMT 37.382355 -10.419948 36,000 16 425 0
2022-09-27 20:24:30 GMT 37.370506 -10.424413 36,000 16 425 0
2022-09-27 20:24:27 GMT 37.364090 -10.426844 36,000 16 425 0
2022-09-27 20:24:20 GMT 37.351513 -10.431638 36,000 16 425 0
2022-09-27 20:24:16 GMT 37.344532 -10.434325 36,000 16 425 0
2022-09-27 20:24:10 GMT 37.331360 -10.439291 36,000 16 425 0
2022-09-27 20:24:06 GMT 37.323990 -10.442096 36,000 16 425 0
2022-09-27 20:23:59 GMT 37.311401 -10.446888 36,000 16 425 0
2022-09-27 20:23:56 GMT 37.305752 -10.449013 36,000 16 424 0
2022-09-27 20:23:52 GMT 37.298023 -10.451939 36,000 16 424 0
2022-09-27 20:23:49 GMT 37.293182 -10.453783 36,000 16 424 0
2022-09-27 20:23:46 GMT 37.286758 -10.456238 36,000 16 424 0
2022-09-27 20:23:42 GMT 37.280777 -10.458517 36,000 17 423 0
2022-09-27 20:23:39 GMT 37.273258 -10.461373 36,000 17 423 0
2022-09-27 20:23:36 GMT 37.267639 -10.463543 36,000 17 423 0
2022-09-27 20:23:29 GMT 37.256222 -10.467881 36,000 17 423 64
2022-09-27 20:23:25 GMT 37.247406 -10.471256 36,000 17 423 0
2022-09-27 20:23:20 GMT 37.237320 -10.475165 36,000 17 423 0
2022-09-27 20:23:15 GMT 37.229034 -10.478330 36,000 16 424 0
2022-09-27 20:23:11 GMT 37.220238 -10.481674 36,000 16 424 0
2022-09-27 20:23:07 GMT 37.213673 -10.484181 36,000 16 424 0
2022-09-27 20:23:04 GMT 37.208038 -10.486333 36,000 16 424 0
2022-09-27 20:23:00 GMT 37.200314 -10.489256 36,000 16 424 0
2022-09-27 20:22:57 GMT 37.195084 -10.491242 36,000 16 424 0
2022-09-27 20:22:53 GMT 37.188858 -10.493638 36,000 16 425 0
2022-09-27 20:22:47 GMT 37.175873 -10.498511 36,000 16 425 -64
2022-09-27 20:22:43 GMT 37.169682 -10.500900 36,000 16 425 -64
2022-09-27 20:22:39 GMT 37.160648 -10.504363 36,000 16 424 0
2022-09-27 20:22:35 GMT 37.154831 -10.506572 36,000 16 424 0
2022-09-27 20:22:32 GMT 37.148594 -10.508901 36,000 16 424 0
2022-09-27 20:22:30 GMT 37.131866 -10.515319 36,000 16 425 0
2022-09-27 20:22:23 GMT 37.131866 -10.515319 36,000 16 425 0
2022-09-27 20:22:17 GMT 37.120560 -10.519584 36,000 16 425 0
2022-09-27 20:22:12 GMT 37.110607 -10.523350 36,000 16 425 0
2022-09-27 20:22:08 GMT 37.102322 -10.526455 36,000 16 426 64
2022-09-27 20:22:05 GMT 37.098179 -10.528007 36,000 16 426 64
2022-09-27 20:21:58 GMT 37.084213 -10.533259 36,000 16 426 0
2022-09-27 20:21:53 GMT 37.075504 -10.536545 36,000 16 427 0
2022-09-27 20:21:49 GMT 37.065857 -10.540213 36,000 16 427 -64
2022-09-27 20:21:44 GMT 37.055283 -10.544187 36,000 16 427 -64
2022-09-27 20:21:38 GMT 37.045990 -10.547693 36,000 16 427 0
2022-09-27 20:21:33 GMT 37.036560 -10.551199 36,000 16 427 0
2022-09-27 20:21:28 GMT 37.027084 -10.554764 36,000 16 427 0
2022-09-27 20:21:22 GMT 37.016476 -10.558757 36,000 16 428 0
2022-09-27 20:21:17 GMT 37.006981 -10.562339 36,000 16 428 0
2022-09-27 20:21:12 GMT 36.996918 -10.566101 36,000 16 428 0
2022-09-27 20:21:07 GMT 36.988403 -10.569315 36,000 16 429 0
2022-09-27 20:21:03 GMT 36.980400 -10.572311 36,000 16 429 0
2022-09-27 20:20:57 GMT 36.968262 -10.576912 36,000 16 429 -64
2022-09-27 20:20:53 GMT 36.961781 -10.579356 36,000 16 429 0
2022-09-27 20:20:47 GMT 36.949814 -10.583866 36,000 16 429 -64
2022-09-27 20:20:43 GMT 36.942551 -10.586581 36,000 16 429 0
2022-09-27 20:20:37 GMT 36.930775 -10.590999 36,000 16 429 0
2022-09-27 20:20:32 GMT 36.921066 -10.594677 36,000 16 430 0
2022-09-27 20:20:28 GMT 36.911549 -10.598284 36,000 16 430 64
2022-09-27 20:20:22 GMT 36.902939 -10.601514 36,000 16 430 64
2022-09-27 20:20:18 GMT 36.888840 -10.606891 36,000 16 430 64
2022-09-27 20:20:12 GMT 36.881241 -10.609754 36,000 16 431 0
2022-09-27 20:20:07 GMT 36.871655 -10.613330 36,000 16 431 0
2022-09-27 20:19:55 GMT 36.851215 -10.621033 36,000 16 432 0
2022-09-27 20:19:50 GMT 36.840088 -10.625153 36,000 16 432 0
2022-09-27 20:19:46 GMT 36.833759 -10.627578 36,000 16 432 0
2022-09-27 20:19:41 GMT 36.824589 -10.631026 36,000 16 432 0
2022-09-27 20:19:37 GMT 36.815186 -10.634537 36,000 16 433 0
2022-09-27 20:19:32 GMT 36.807133 -10.637571 36,000 16 432 0
2022-09-27 20:19:25 GMT 36.793121 -10.642834 36,000 16 433 0
2022-09-27 20:19:22 GMT 36.787395 -10.644992 36,000 16 433 0
2022-09-27 20:19:15 GMT 36.773941 -10.650043 36,000 16 433 0
2022-09-27 20:19:07 GMT 36.757416 -10.656281 36,000 16 433 0
2022-09-27 20:19:00 GMT 36.745514 -10.660744 36,000 16 433 0
2022-09-27 20:18:55 GMT 36.733395 -10.665329 36,000 16 434 0
2022-09-27 20:18:46 GMT 36.717636 -10.671215 36,000 16 434 0
2022-09-27 20:18:40 GMT 36.706650 -10.675335 36,000 16 434 0
2022-09-27 20:18:36 GMT 36.698959 -10.678253 36,000 16 434 0
2022-09-27 20:18:32 GMT 36.690125 -10.681572 36,000 16 434 0
2022-09-27 20:18:25 GMT 36.677765 -10.686191 36,000 16 434 0
2022-09-27 20:18:22 GMT 36.671619 -10.688470 36,000 16 435 0
2022-09-27 20:18:14 GMT 36.657532 -10.693760 36,000 16 435 0
2022-09-27 20:18:12 GMT 36.651947 -10.695820 36,000 16 435 0
2022-09-27 20:18:09 GMT 36.647690 -10.697411 36,000 16 435 0
2022-09-27 20:18:05 GMT 36.638241 -10.700976 36,000 16 435 0
2022-09-27 20:18:00 GMT 36.630325 -10.703898 36,000 16 435 0
2022-09-27 20:17:55 GMT 36.618942 -10.708179 36,000 16 435 0
2022-09-27 20:17:51 GMT 36.612991 -10.710411 36,000 16 435 0
2022-09-27 20:17:44 GMT 36.597336 -10.716248 36,000 16 435 0
2022-09-27 20:17:37 GMT 36.580170 -10.722599 36,000 16 435 0
2022-09-27 20:17:34 GMT 36.580170 -10.722599 36,000 16 435 0
2022-09-27 20:17:25 GMT 36.562180 -10.729294 36,000 16 436 0
2022-09-27 20:17:22 GMT 36.553482 -10.732555 36,000 16 436 -64
2022-09-27 20:17:15 GMT 36.542084 -10.736790 36,000 16 436 0
2022-09-27 20:17:12 GMT 36.521393 -10.744514 36,000 16 436 0
2022-09-27 20:17:04 GMT 36.521393 -10.744514 36,000 16 436 0
2022-09-27 20:17:00 GMT 36.513294 -10.747492 36,000 16 436 0
2022-09-27 20:16:54 GMT 36.502258 -10.751610 36,000 16 436 0
2022-09-27 20:16:50 GMT 36.493557 -10.754797 36,000 16 436 0
2022-09-27 20:16:43 GMT 36.482288 -10.758946 36,000 16 436 0
2022-09-27 20:16:39 GMT 36.472839 -10.762511 36,000 16 436 0
2022-09-27 20:16:32 GMT 36.460457 -10.767069 36,000 16 436 0
2022-09-27 20:16:30 GMT 36.456573 -10.768547 36,000 16 436 0
2022-09-27 20:16:24 GMT 36.443977 -10.773205 36,000 16 436 0
2022-09-27 20:16:21 GMT 36.436855 -10.775835 36,000 16 436 0
2022-09-27 20:16:14 GMT 36.424255 -10.780506 36,000 16 436 0
2022-09-27 20:16:10 GMT 36.417892 -10.782909 36,000 16 436 0
2022-09-27 20:16:02 GMT 36.401241 -10.789100 36,000 16 436 0
2022-09-27 20:16:00 GMT 36.397751 -10.790386 36,000 16 436 0
2022-09-27 20:15:53 GMT 36.383057 -10.795841 36,000 16 436 0
2022-09-27 20:15:50 GMT 36.378201 -10.797632 36,000 16 436 0
2022-09-27 20:15:44 GMT 36.365211 -10.802482 36,000 16 436 0
2022-09-27 20:15:39 GMT 36.357513 -10.805340 36,000 16 436 0
2022-09-27 20:15:33 GMT 36.345287 -10.809846 36,000 16 436 0
2022-09-27 20:15:29 GMT 36.337559 -10.812768 36,000 16 436 0
2022-09-27 20:15:23 GMT 36.325970 -10.817092 36,000 16 436 0
2022-09-27 20:15:19 GMT 36.318428 -10.819839 36,000 16 436 0
2022-09-27 20:15:14 GMT 36.306976 -10.824108 36,000 16 436 0
2022-09-27 20:15:10 GMT 36.298279 -10.827312 36,000 16 436 0
2022-09-27 20:15:02 GMT 36.284729 -10.832348 36,000 16 436 0
2022-09-27 20:14:58 GMT 36.266941 -10.838948 36,000 16 436 0
2022-09-27 20:14:52 GMT 36.266941 -10.838948 36,000 16 436 0
2022-09-27 20:14:49 GMT 36.259781 -10.841618 36,000 16 436 0
2022-09-27 20:14:42 GMT 36.246784 -10.846369 36,000 16 437 0
2022-09-27 20:14:38 GMT 36.229744 -10.852681 36,000 16 437 0
2022-09-27 20:14:33 GMT 36.229744 -10.852681 36,000 16 437 0
2022-09-27 20:14:29 GMT 36.220062 -10.856245 36,000 16 437 0
2022-09-27 20:14:22 GMT 36.208603 -10.860443 36,000 16 437 -64
2022-09-27 20:14:17 GMT 36.198181 -10.864310 36,000 16 437 0
2022-09-27 20:14:13 GMT 36.180119 -10.870972 36,000 16 437 0
2022-09-27 20:14:08 GMT 36.180119 -10.870972 36,000 16 437 0
2022-09-27 20:14:02 GMT 36.168484 -10.875296 36,000 16 437 0
2022-09-27 20:13:59 GMT 36.161133 -10.878010 36,000 16 437 0
2022-09-27 20:13:53 GMT 36.151211 -10.881666 36,000 16 437 0
2022-09-27 20:13:46 GMT 36.138977 -10.886135 36,000 16 438 0
2022-09-27 20:13:40 GMT 36.125381 -10.891171 36,000 16 438 0
2022-09-27 20:13:37 GMT 36.117828 -10.893974 36,000 16 438 0
2022-09-27 20:13:26 GMT 36.099747 -10.900612 36,000 16 438 0
2022-09-27 20:13:21 GMT 36.088486 -10.904732 36,000 16 438 0
2022-09-27 20:13:16 GMT 36.071182 -10.911083 36,000 16 438 64
2022-09-27 20:13:04 GMT 36.057407 -10.916203 36,000 16 438 0
2022-09-27 20:12:56 GMT 36.040283 -10.922470 36,000 16 438 0
2022-09-27 20:12:47 GMT 36.015015 -10.931740 36,000 16 438 0
2022-09-27 20:12:35 GMT 36.000008 -10.937240 36,000 16 439 0
2022-09-27 20:12:29 GMT 35.988323 -10.941506 36,000 16 439 0
2022-09-27 20:12:25 GMT 35.981529 -10.944019 36,000 16 439 0
2022-09-27 20:12:19 GMT 35.969238 -10.948505 36,000 16 439 0
2022-09-27 20:12:14 GMT 35.960083 -10.951824 36,000 16 439 0
2022-09-27 20:12:09 GMT 35.949600 -10.955658 36,000 16 439 0
2022-09-27 20:12:05 GMT 35.941772 -10.958512 36,000 16 439 0
2022-09-27 20:11:56 GMT 35.924084 -10.964940 36,000 16 439 0
2022-09-27 20:11:54 GMT 35.920349 -10.966301 36,000 16 439 0
2022-09-27 20:11:49 GMT 35.910397 -10.969907 36,000 16 439 0
2022-09-27 20:11:44 GMT 35.890144 -10.977270 36,000 16 439 0
2022-09-27 20:11:38 GMT 35.890144 -10.977270 36,000 16 439 0
2022-09-27 20:11:34 GMT 35.881165 -10.980549 36,000 17 439 0
2022-09-27 20:11:27 GMT 35.868347 -10.985584 36,000 19 440 0
2022-09-27 20:11:23 GMT 35.858780 -10.989876 36,000 21 441 0
2022-09-27 20:11:19 GMT 35.851555 -10.993458 36,000 22 442 0
2022-09-27 20:11:08 GMT 35.831451 -11.003551 36,000 22 443 0
2022-09-27 20:10:58 GMT 35.811356 -11.013622 36,000 22 443 0
2022-09-27 20:10:49 GMT 35.794807 -11.021917 36,000 22 443 0
2022-09-27 20:10:38 GMT 35.774696 -11.032027 36,000 22 444 0
2022-09-27 20:10:31 GMT 35.761383 -11.038747 36,000 22 444 0
2022-09-27 20:10:26 GMT 35.751095 -11.043889 36,000 22 444 0
2022-09-27 20:10:22 GMT 35.744293 -11.047325 36,000 22 444 0
2022-09-27 20:10:17 GMT 35.734756 -11.052071 36,000 22 444 0
2022-09-27 20:10:07 GMT 35.716141 -11.061459 36,000 22 444 0
2022-09-27 20:10:01 GMT 35.704914 -11.067031 36,000 22 444 0
2022-09-27 20:09:56 GMT 35.694256 -11.072407 36,000 22 444 0
2022-09-27 20:09:47 GMT 35.678421 -11.080284 36,000 22 444 0
2022-09-27 20:09:29 GMT 35.643978 -11.097419 36,000 22 444 0
2022-09-27 20:09:25 GMT 35.635986 -11.101398 36,000 22 444 0
2022-09-27 20:09:21 GMT 35.627403 -11.105717 36,000 22 444 0
2022-09-27 20:09:11 GMT 35.608337 -11.115189 36,000 22 444 0
2022-09-27 20:09:07 GMT 35.600555 -11.119080 36,000 22 444 64
2022-09-27 20:09:01 GMT 35.588535 -11.125060 36,000 22 444 0
2022-09-27 20:08:49 GMT 35.567028 -11.135754 36,000 22 444 0
2022-09-27 20:08:37 GMT 35.544170 -11.147149 36,000 22 444 0
2022-09-27 20:08:26 GMT 35.524200 -11.157142 36,000 22 443 0
2022-09-27 20:08:13 GMT 35.500443 -11.168976 36,000 22 443 64
2022-09-27 20:08:07 GMT 35.487488 -11.175385 36,000 22 444 0
2022-09-27 20:07:53 GMT 35.460480 -11.188831 36,000 22 444 0
2022-09-27 20:07:51 GMT 35.456654 -11.190744 36,000 22 444 0
2022-09-27 20:07:48 GMT 35.450958 -11.193581 36,000 22 444 0
2022-09-27 20:07:43 GMT 35.441071 -11.198502 36,000 22 444 0
2022-09-27 20:07:38 GMT 35.432877 -11.202564 36,000 22 443 0
2022-09-27 20:07:29 GMT 35.414242 -11.211840 36,000 22 443 0
2022-09-27 20:06:54 GMT 35.348186 -11.244682 36,000 22 444 0
2022-09-27 20:06:45 GMT 35.331985 -11.252688 36,000 22 444 0
2022-09-27 20:06:39 GMT 35.317879 -11.259642 36,000 22 444 0
2022-09-27 20:06:27 GMT 35.296371 -11.270256 36,000 22 444 0
2022-09-27 20:06:18 GMT 35.279572 -11.278553 36,000 22 444 0
2022-09-27 20:05:30 GMT 35.187012 -11.324270 36,000 22 443 0
2022-09-27 20:05:13 GMT 35.156387 -11.339460 36,000 22 443 0
2022-09-27 20:05:07 GMT 35.139404 -11.347812 36,000 22 443 0
2022-09-27 20:04:56 GMT 35.121521 -11.356659 36,000 22 443 0
2022-09-27 20:04:47 GMT 35.106670 -11.363983 36,000 21 444 0
2022-09-27 20:04:36 GMT 35.085526 -11.374381 36,000 22 444 0
2022-09-27 20:04:27 GMT 35.068359 -11.382789 36,000 21 444 0
2022-09-27 20:04:16 GMT 35.046852 -11.393394 36,000 21 444 0
2022-09-27 20:04:15 GMT 35.045883 -11.393831 36,000 21 444 0
2022-09-27 20:03:35 GMT 34.969578 -11.431389 36,000 22 445 0
2022-09-27 20:03:32 GMT 34.963486 -11.434357 36,000 22 445 0
2022-09-27 20:03:24 GMT 34.948582 -11.441689 36,000 22 445 -64
2022-09-27 20:03:08 GMT 34.918228 -11.456623 36,000 22 445 0
2022-09-27 20:03:02 GMT 34.906918 -11.462116 36,000 22 445 0
2022-09-27 20:02:44 GMT 34.872299 -11.479031 36,000 21 445 0
2022-09-27 20:02:42 GMT 34.866184 -11.482029 36,000 21 446 0
2022-09-27 20:01:40 GMT 34.749893 -11.538783 36,000 21 447 0
2022-09-27 20:00:15 GMT 34.585510 -11.618771 36,000 21 447 0
2022-09-27 19:59:13 GMT 34.467636 -11.675944 36,000 21 446 0
2022-09-27 19:59:11 GMT 34.462669 -11.678352 36,000 21 446 0
2022-09-27 19:58:54 GMT 34.431385 -11.693459 36,000 21 446 0
2022-09-27 19:58:51 GMT 34.425426 -11.696320 36,000 21 446 0
2022-09-27 19:58:41 GMT 34.405472 -11.705989 36,000 21 446 0
2022-09-27 19:58:31 GMT 34.386276 -11.715260 36,000 21 446 0
2022-09-27 19:58:17 GMT 34.360382 -11.727793 36,000 21 446 0
2022-09-27 19:58:10 GMT 34.345184 -11.735136 36,000 21 446 0
2022-09-27 19:58:00 GMT 34.327339 -11.743755 36,000 21 446 0
2022-09-27 19:57:50 GMT 34.307556 -11.753311 36,000 21 446 0
2022-09-27 19:57:38 GMT 34.285259 -11.764011 36,000 21 446 -64
2022-09-27 19:57:30 GMT 34.268543 -11.772079 36,000 21 447 0
2022-09-27 19:57:20 GMT 34.249283 -11.781323 36,000 21 447 0
2022-09-27 19:57:09 GMT 34.229462 -11.790909 36,000 21 447 0
2022-09-27 19:56:59 GMT 34.209473 -11.800518 36,000 21 448 0
2022-09-27 19:56:47 GMT 34.186752 -11.811480 36,000 21 447 64
2022-09-27 19:56:39 GMT 34.170925 -11.819057 36,000 21 447 0
2022-09-27 19:56:07 GMT 34.109390 -11.848587 36,000 21 448 64
2022-09-27 19:55:55 GMT 34.086575 -11.859512 36,000 21 448 -64
2022-09-27 19:55:16 GMT 34.009598 -11.896344 36,000 21 451 -64
2022-09-27 19:55:04 GMT 33.986530 -11.907349 36,000 21 451 64
2022-09-27 19:54:47 GMT 33.955307 -11.922296 36,000 21 451 0
2022-09-27 19:54:46 GMT 33.953388 -11.923199 36,000 21 451 0
2022-09-27 19:53:31 GMT 33.805527 -11.993819 36,000 21 461 -64
2022-09-27 19:53:23 GMT 33.789246 -12.001591 36,000 21 461 0
2022-09-27 19:53:15 GMT 33.773163 -12.009234 36,025 21 461 0
2022-09-27 19:53:05 GMT 33.754349 -12.018202 36,000 21 460 -64
2022-09-27 19:52:55 GMT 33.733292 -12.028180 36,025 21 460 128
2022-09-27 19:52:45 GMT 33.713505 -12.037582 36,000 21 460 -128
2022-09-27 19:52:35 GMT 33.693695 -12.047013 36,000 21 459 64
2022-09-27 19:52:01 GMT 33.627476 -12.078438 36,000 21 459 0
2022-09-27 19:51:52 GMT 33.608459 -12.087427 36,000 21 459 0
2022-09-27 19:51:44 GMT 33.593033 -12.094770 36,000 21 459 -64
2022-09-27 19:51:34 GMT 33.573475 -12.104015 36,000 21 460 64
2022-09-27 19:51:23 GMT 33.551468 -12.114389 36,000 21 460 0
2022-09-27 19:51:13 GMT 33.532833 -12.123189 36,000 21 460 0
We lost coverage of the aircraft here for a total of 14 minutes
2022-09-27 19:37:41 GMT 31.924780 -12.868185 36,000 21 468 0
2022-09-27 19:36:14 GMT 31.746140 -12.949057 36,000 21 470 0
2022-09-27 19:36:11 GMT 31.740829 -12.951427 36,000 21 470 0
2022-09-27 19:36:01 GMT 31.719681 -12.961013 36,000 21 470 0
2022-09-27 19:35:50 GMT 31.698303 -12.970653 36,000 21 471 -64
2022-09-27 19:35:37 GMT 31.672302 -12.982447 36,000 21 470 0
2022-09-27 19:35:29 GMT 31.655010 -12.990289 36,000 21 470 0
2022-09-27 19:35:09 GMT 31.614323 -13.008746 36,000 21 470 0
2022-09-27 19:35:00 GMT 31.596176 -13.016914 36,000 21 471 0
2022-09-27 19:34:48 GMT 31.572144 -13.027793 36,000 21 472 0
2022-09-27 19:34:39 GMT 31.552734 -13.036571 36,000 21 473 0
2022-09-27 19:34:12 GMT 31.497803 -13.061398 36,000 21 476 0
2022-09-27 19:34:05 GMT 31.483841 -13.067699 36,000 21 475 0
2022-09-27 19:33:48 GMT 31.448875 -13.083453 36,000 21 475 0
2022-09-27 19:33:45 GMT 31.443512 -13.085848 36,000 21 475 0
2022-09-27 19:33:37 GMT 31.426025 -13.093657 36,000 20 475 0
2022-09-27 19:33:20 GMT 31.392105 -13.108844 36,000 20 475 64
2022-09-27 19:33:17 GMT 31.362350 -13.122200 36,000 21 475 0
2022-09-27 19:33:06 GMT 31.362350 -13.122200 36,000 21 474 0
2022-09-27 19:33:01 GMT 31.352095 -13.126794 36,000 21 474 0
2022-09-27 19:32:58 GMT 31.345716 -13.129651 36,000 21 474 0
2022-09-27 19:32:54 GMT 31.336899 -13.133617 36,000 21 474 0
2022-09-27 19:32:46 GMT 31.321136 -13.140692 36,000 21 473 0
2022-09-27 19:32:42 GMT 31.311905 -13.144818 36,000 21 473 0
2022-09-27 19:32:38 GMT 31.304518 -13.148163 36,000 21 473 0
2022-09-27 19:32:36 GMT 31.300049 -13.150150 36,000 21 473 0
2022-09-27 19:32:33 GMT 31.292450 -13.153543 36,000 21 473 0
2022-09-27 19:32:28 GMT 31.284073 -13.157313 36,000 21 473 0
2022-09-27 19:32:18 GMT 31.262808 -13.166840 36,000 21 472 0
2022-09-27 19:32:12 GMT 31.251984 -13.171692 36,000 20 472 0
2022-09-27 19:32:07 GMT 31.240723 -13.176700 36,000 20 472 0
2022-09-27 19:32:02 GMT 31.231569 -13.180847 36,000 20 472 0
2022-09-27 19:31:57 GMT 31.221933 -13.185132 36,000 21 472 0
2022-09-27 19:31:51 GMT 31.208267 -13.191241 36,000 20 472 0
2022-09-27 19:31:43 GMT 31.190094 -13.199373 36,000 20 472 0
2022-09-27 19:31:37 GMT 31.180527 -13.203628 36,000 20 472 64
2022-09-27 19:31:34 GMT 31.174622 -13.206267 36,000 20 472 64
2022-09-27 19:31:30 GMT 31.166025 -13.210126 36,000 20 472 64
2022-09-27 19:31:24 GMT 31.154202 -13.215399 36,000 20 472 -64
2022-09-27 19:31:21 GMT 31.147451 -13.218365 36,000 20 470 -64
2022-09-27 19:31:17 GMT 31.139328 -13.221992 36,000 20 470 0
2022-09-27 19:31:12 GMT 31.128342 -13.226893 36,025 20 469 0
2022-09-27 19:31:02 GMT 31.107277 -13.236273 36,025 21 465 64
2022-09-27 19:30:57 GMT 31.098404 -13.240249 36,000 21 465 64
2022-09-27 19:30:44 GMT 31.071899 -13.252043 36,000 21 465 -128
2022-09-27 19:30:42 GMT 31.069290 -13.253228 36,025 21 465 -64
2022-09-27 19:30:37 GMT 31.057434 -13.258559 36,025 21 465 -64
2022-09-27 19:30:22 GMT 31.029301 -13.271045 35,900 20 463 896
2022-09-27 19:30:15 GMT 31.013489 -13.278108 35,800 20 463 832
2022-09-27 19:30:10 GMT 31.002487 -13.283020 35,725 20 463 896
2022-09-27 19:29:59 GMT 30.980980 -13.292523 35,575 20 463 832
2022-09-27 19:29:56 GMT 30.977188 -13.294211 35,550 20 463 896
2022-09-27 19:29:50 GMT 30.962952 -13.300512 35,450 20 463 896
2022-09-27 19:29:46 GMT 30.956959 -13.303180 35,400 20 463 960
2022-09-27 19:29:36 GMT 30.936895 -13.312024 35,225 20 463 1024
2022-09-27 19:29:29 GMT 30.921438 -13.318890 35,100 20 464 1088
2022-09-27 19:29:12 GMT 30.887650 -13.333848 34,750 20 465 1216
2022-09-27 19:29:08 GMT 30.879822 -13.337295 34,675 20 465 1152
2022-09-27 19:28:59 GMT 30.862877 -13.344818 34,525 20 466 1280
2022-09-27 19:28:45 GMT 30.834824 -13.357221 34,225 20 467 1472
2022-09-27 19:28:39 GMT 30.822647 -13.362552 34,075 20 468 1472
2022-09-27 19:28:29 GMT 30.801941 -13.371735 33,700 20 470 1216
2022-09-27 19:28:17 GMT 30.777128 -13.382666 33,575 20 470 1216
2022-09-27 19:28:03 GMT 30.746962 -13.396014 33,275 20 470 1152
2022-09-27 19:27:59 GMT 30.739420 -13.399310 33,175 20 470 1024
2022-09-27 19:27:55 GMT 30.731232 -13.402943 33,150 20 470 1024
2022-09-27 19:27:48 GMT 30.714752 -13.410268 33,000 20 470 1088
2022-09-27 19:27:36 GMT 30.693787 -13.419531 32,825 20 470 1152
2022-09-27 19:27:26 GMT 30.672867 -13.428794 32,600 20 469 1280
2022-09-27 19:27:15 GMT 30.650505 -13.438696 32,375 21 469 1216
2022-09-27 19:27:06 GMT 30.632446 -13.446727 32,200 20 469 1152
2022-09-27 19:26:56 GMT 30.613823 -13.455066 32,025 21 468 1152
2022-09-27 19:26:49 GMT 30.598618 -13.461806 31,900 21 468 1216
2022-09-27 19:26:47 GMT 30.590744 -13.465307 31,800 21 468 1280
2022-09-27 19:26:36 GMT 30.571106 -13.474031 31,600 21 468 1280
2022-09-27 19:26:27 GMT 30.553711 -13.481786 31,400 21 468 1472
2022-09-27 19:26:25 GMT 30.548416 -13.484125 31,325 20 468 1280
2022-09-27 19:26:15 GMT 30.526337 -13.493850 31,075 20 468 1280
2022-09-27 19:26:05 GMT 30.509081 -13.501373 30,875 20 468 1600
2022-09-27 19:25:56 GMT 30.489075 -13.509845 30,625 20 469 1600
2022-09-27 19:25:47 GMT 30.472116 -13.516974 30,375 20 470 1664
2022-09-27 19:25:45 GMT 30.468252 -13.518622 30,325 20 470 1536
2022-09-27 19:25:35 GMT 30.446960 -13.527563 29,900 20 469 1216
2022-09-27 19:25:26 GMT 30.427753 -13.535706 29,925 20 469 1280
2022-09-27 19:25:24 GMT 30.407318 -13.544096 29,900 19 469 1152
2022-09-27 19:25:15 GMT 30.407318 -13.544096 29,750 16 466 1152
2022-09-27 19:25:13 GMT 30.401321 -13.546196 29,675 14 464 1344
2022-09-27 19:25:07 GMT 30.388603 -13.549988 29,550 11 463 1280
2022-09-27 19:25:04 GMT 30.385670 -13.550702 29,525 11 462 1280
2022-09-27 19:25:02 GMT 30.379152 -13.552240 29,450 1 456 1408
2022-09-27 19:24:56 GMT 30.361835 -13.554987 29,325 5 457 1344
2022-09-27 19:24:54 GMT 30.361835 -13.554987 29,225 1 456 1408
2022-09-27 19:24:47 GMT 30.347263 -13.556140 29,150 0 455 1280
2022-09-27 19:24:44 GMT 30.340096 -13.556140 29,075 359 454 1088
2022-09-27 19:24:37 GMT 30.326065 -13.555352 28,950 356 450 1216
2022-09-27 19:24:33 GMT 30.319199 -13.554759 28,875 356 450 1152
2022-09-27 19:24:31 GMT 30.314850 -13.554328 28,825 356 450 1152
2022-09-27 19:24:26 GMT 30.304251 -13.553339 28,725 356 449 1344
2022-09-27 19:24:24 GMT 30.300480 -13.552954 28,700 356 449 1472
2022-09-27 19:24:21 GMT 30.293427 -13.552282 28,600 356 449 1600
2022-09-27 19:24:17 GMT 30.284729 -13.551474 28,500 356 448 1280
2022-09-27 19:24:15 GMT 30.281021 -13.551151 28,475 356 448 1216
2022-09-27 19:24:11 GMT 30.272501 -13.550317 28,375 356 448 1344
2022-09-27 19:24:07 GMT 30.263611 -13.549493 28,275 356 447 1472
2022-09-27 19:24:05 GMT 30.260513 -13.549212 28,250 356 447 1472
2022-09-27 19:24:01 GMT 30.251816 -13.548404 28,150 356 446 1344
2022-09-27 19:23:55 GMT 30.239868 -13.547241 28,025 356 446 1344
2022-09-27 19:23:50 GMT 30.229954 -13.546307 27,900 356 445 1536
2022-09-27 19:23:47 GMT 30.222364 -13.545593 27,800 356 445 1408
2022-09-27 19:23:45 GMT 30.218454 -13.545209 27,775 356 445 1344
2022-09-27 19:23:40 GMT 30.209427 -13.544365 27,675 356 444 1344
2022-09-27 19:23:37 GMT 30.201782 -13.543665 27,575 356 444 1472
2022-09-27 19:23:34 GMT 30.195877 -13.543073 27,500 356 443 1472
2022-09-27 19:23:30 GMT 30.188892 -13.542407 27,425 356 443 1408
2022-09-27 19:23:26 GMT 30.180725 -13.541619 27,325 356 442 1344
2022-09-27 19:23:21 GMT 30.170273 -13.540649 27,225 356 441 1408
2022-09-27 19:23:16 GMT 30.160683 -13.539716 27,100 356 441 1408
2022-09-27 19:23:10 GMT 30.144379 -13.538172 26,950 356 439 1344
2022-09-27 19:23:06 GMT 30.139547 -13.537738 26,875 356 439 1408
2022-09-27 19:23:00 GMT 30.126755 -13.536503 26,750 356 438 1408
2022-09-27 19:22:57 GMT 30.121300 -13.535980 26,675 356 437 1280
2022-09-27 19:22:55 GMT 30.118881 -13.535749 26,650 356 437 1280
2022-09-27 19:22:49 GMT 30.099512 -13.533948 26,450 356 435 1344
2022-09-27 19:22:46 GMT 30.099512 -13.533948 26,425 356 434 1216
2022-09-27 19:22:40 GMT 30.087845 -13.532841 26,300 356 434 1152
2022-09-27 19:22:36 GMT 30.078598 -13.531925 26,225 356 432 1280
2022-09-27 19:22:30 GMT 30.067625 -13.530927 26,100 356 431 1408
2022-09-27 19:22:26 GMT 30.058687 -13.530103 25,975 356 430 1472
2022-09-27 19:22:20 GMT 30.047333 -13.529017 25,850 356 429 1600
2022-09-27 19:22:16 GMT 30.039413 -13.528290 25,725 356 429 1728
2022-09-27 19:22:10 GMT 30.026505 -13.527078 25,525 356 428 1600
2022-09-27 19:22:06 GMT 30.019592 -13.526432 25,450 356 428 1664
2022-09-27 19:21:59 GMT 30.005571 -13.525104 25,250 356 427 1792
2022-09-27 19:21:55 GMT 29.998634 -13.524445 25,125 356 427 1792
2022-09-27 19:21:49 GMT 29.986019 -13.523236 24,975 356 427 1792
2022-09-27 19:21:45 GMT 29.978291 -13.522522 24,825 356 427 1792
2022-09-27 19:21:39 GMT 29.966263 -13.521423 24,600 356 426 1792
2022-09-27 19:21:36 GMT 29.959578 -13.520764 24,550 356 426 1728
2022-09-27 19:21:29 GMT 29.939699 -13.518896 24,300 356 425 1792
2022-09-27 19:21:26 GMT 29.939699 -13.518896 24,250 356 425 1792
2022-09-27 19:21:20 GMT 29.929085 -13.517908 24,075 356 424 1792
2022-09-27 19:21:18 GMT 29.925156 -13.517546 23,975 356 424 1792
2022-09-27 19:21:15 GMT 29.919296 -13.517007 23,925 356 424 1792
2022-09-27 19:21:09 GMT 29.907299 -13.515876 23,750 356 423 1664
2022-09-27 19:21:06 GMT 29.900253 -13.515244 23,675 356 422 1600
2022-09-27 19:21:00 GMT 29.888947 -13.514187 23,525 356 421 1600
2022-09-27 19:20:58 GMT 29.885048 -13.513830 23,325 356 419 1472
2022-09-27 19:20:55 GMT 29.879601 -13.513291 23,400 356 420 1536
2022-09-27 19:20:50 GMT 29.870087 -13.512391 23,275 356 418 1536
2022-09-27 19:20:48 GMT 29.865822 -13.511999 23,175 356 418 1600
2022-09-27 19:20:45 GMT 29.859816 -13.511460 23,125 356 417 1600
2022-09-27 19:20:40 GMT 29.849991 -13.510543 23,000 356 416 1536
2022-09-27 19:20:35 GMT 29.840776 -13.509629 22,875 356 415 1600
2022-09-27 19:20:30 GMT 29.831177 -13.508747 22,750 356 413 1600
2022-09-27 19:20:25 GMT 29.820877 -13.507743 22,600 356 412 1536
2022-09-27 19:20:19 GMT 29.810577 -13.506793 22,450 356 410 1536
2022-09-27 19:20:15 GMT 29.801859 -13.505967 22,350 356 409 1536
2022-09-27 19:20:10 GMT 29.792587 -13.505102 22,200 356 408 1600
2022-09-27 19:20:04 GMT 29.782791 -13.504152 22,050 356 407 1856
2022-09-27 19:19:58 GMT 29.770203 -13.502951 21,825 356 406 1984
2022-09-27 19:19:54 GMT 29.763977 -13.502409 21,725 356 406 1984
2022-09-27 19:19:50 GMT 29.754421 -13.501497 21,550 356 405 2048
2022-09-27 19:19:44 GMT 29.745026 -13.500613 21,375 356 405 2240
2022-09-27 19:19:39 GMT 29.735847 -13.499774 21,175 356 405 2240
2022-09-27 19:19:34 GMT 29.726120 -13.498870 21,000 356 405 2112
2022-09-27 19:19:30 GMT 29.717148 -13.498025 20,825 356 405 2112
2022-09-27 19:19:24 GMT 29.707403 -13.497135 20,625 356 405 2432
2022-09-27 19:19:19 GMT 29.698048 -13.496273 20,425 356 405 2496
2022-09-27 19:19:14 GMT 29.688309 -13.495384 20,225 356 405 2176
2022-09-27 19:19:07 GMT 29.676680 -13.494281 20,000 356 404 2176
2022-09-27 19:19:04 GMT 29.669220 -13.493588 19,850 356 404 2368
2022-09-27 19:18:54 GMT 29.650562 -13.491857 19,525 356 402 1792
2022-09-27 19:18:44 GMT 29.632547 -13.490134 19,225 356 399 1856
2022-09-27 19:18:37 GMT 29.618729 -13.488781 19,025 356 396 1664
2022-09-27 19:18:34 GMT 29.613052 -13.488253 18,925 356 395 1600
2022-09-27 19:18:28 GMT 29.602289 -13.487172 18,750 356 393 1792
2022-09-27 19:18:24 GMT 29.594839 -13.486472 18,625 356 391 1856
2022-09-27 19:18:17 GMT 29.583801 -13.485401 18,425 356 390 1920
2022-09-27 19:18:12 GMT 29.572632 -13.484344 18,250 356 388 1856
2022-09-27 19:18:09 GMT 29.568306 -13.483941 18,175 356 387 1920
2022-09-27 19:18:07 GMT 29.564209 -13.483552 18,075 356 386 2112
2022-09-27 19:18:04 GMT 29.558855 -13.483025 17,975 356 386 2432
2022-09-27 19:17:59 GMT 29.550659 -13.482285 17,775 356 386 2688
2022-09-27 19:17:57 GMT 29.547823 -13.482002 17,700 356 386 2688
2022-09-27 19:17:53 GMT 29.540314 -13.481281 17,525 356 386 2368
2022-09-27 19:17:49 GMT 29.528549 -13.480225 17,275 356 385 2176
2022-09-27 19:17:43 GMT 29.522324 -13.479644 17,125 356 384 2496
2022-09-27 19:17:39 GMT 29.514679 -13.478957 16,950 356 384 2752
2022-09-27 19:17:37 GMT 29.511093 -13.478609 16,850 356 385 2816
2022-09-27 19:17:32 GMT 29.503132 -13.477855 16,650 356 385 2688
2022-09-27 19:17:26 GMT 29.492249 -13.476897 16,375 356 385 2368
2022-09-27 19:17:22 GMT 29.484421 -13.476158 16,200 356 384 2368
2022-09-27 19:17:18 GMT 29.478554 -13.475593 16,075 356 383 2368
2022-09-27 19:17:16 GMT 29.474503 -13.475216 15,975 356 383 2432
2022-09-27 19:17:12 GMT 29.467575 -13.474626 15,850 356 383 2496
2022-09-27 19:17:06 GMT 29.456068 -13.473547 15,550 356 382 2304
2022-09-27 19:17:02 GMT 29.449179 -13.472900 15,450 357 381 2176
2022-09-27 19:16:55 GMT 29.438049 -13.472196 15,150 359 381 2624
2022-09-27 19:16:52 GMT 29.431349 -13.472039 14,975 0 382 2624
2022-09-27 19:16:48 GMT 29.424957 -13.472091 14,825 1 382 2560
2022-09-27 19:16:43 GMT 29.415380 -13.472308 14,600 1 381 2112
2022-09-27 19:16:41 GMT 29.413284 -13.472355 14,575 1 380 2048
2022-09-27 19:16:37 GMT 29.406418 -13.472513 14,450 1 379 1984
2022-09-27 19:16:35 GMT 29.402021 -13.472631 14,350 1 377 2048
2022-09-27 19:16:32 GMT 29.396759 -13.472724 14,275 1 377 2112
2022-09-27 19:16:23 GMT 29.377625 -13.473147 13,850 1 373 1792
2022-09-27 19:16:21 GMT 29.377625 -13.473147 13,850 1 373 1792
2022-09-27 19:16:13 GMT 29.362497 -13.473493 13,600 1 367 1984
2022-09-27 19:16:10 GMT 29.359426 -13.473547 13,525 1 366 2176
2022-09-27 19:16:06 GMT 29.346020 -13.473870 13,200 1 364 2560
2022-09-27 19:16:03 GMT 29.346020 -13.473870 13,200 1 364 2560
2022-09-27 19:16:01 GMT 29.342789 -13.473939 13,125 1 364 2560
2022-09-27 19:15:56 GMT 29.334686 -13.474150 12,925 1 362 2304
2022-09-27 19:15:52 GMT 29.328981 -13.474301 12,800 1 361 2176
2022-09-27 19:15:48 GMT 29.322327 -13.474467 12,650 1 359 2688
2022-09-27 19:15:44 GMT 29.315643 -13.474626 12,475 1 359 2752
2022-09-27 19:15:42 GMT 29.311981 -13.474731 12,375 1 358 2752
2022-09-27 19:15:40 GMT 29.308502 -13.474837 12,275 1 358 2752
2022-09-27 19:15:35 GMT 29.301041 -13.475048 12,075 1 357 2816
2022-09-27 19:15:32 GMT 29.295227 -13.475207 11,900 1 357 2816
2022-09-27 19:15:30 GMT 29.291227 -13.475324 11,800 1 356 2816
2022-09-27 19:15:25 GMT 29.282988 -13.475593 11,575 1 355 2816
2022-09-27 19:15:22 GMT 29.278885 -13.475735 11,450 1 355 2688
2022-09-27 19:15:19 GMT 29.274399 -13.475841 11,350 1 354 2496
2022-09-27 19:15:16 GMT 29.268036 -13.476052 11,200 1 351 2240
2022-09-27 19:15:12 GMT 29.261993 -13.476263 11,050 1 350 2176
2022-09-27 19:15:09 GMT 29.257755 -13.476347 10,975 1 348 1856
2022-09-27 19:15:05 GMT 29.251144 -13.476562 10,875 1 343 1216
2022-09-27 19:15:02 GMT 29.245560 -13.476739 10,800 1 340 960
2022-09-27 19:14:59 GMT 29.240845 -13.476897 10,750 1 334 1024
2022-09-27 19:14:52 GMT 29.230057 -13.477209 10,625 1 326 1152
2022-09-27 19:14:49 GMT 29.225189 -13.477320 10,575 1 322 832
2022-09-27 19:14:46 GMT 29.221024 -13.477425 10,550 1 316 704
2022-09-27 19:14:42 GMT 29.214844 -13.477584 10,475 1 312 1216
2022-09-27 19:14:36 GMT 29.205917 -13.477848 10,300 1 307 2304
2022-09-27 19:14:32 GMT 29.200653 -13.477953 10,125 1 305 2624
2022-09-27 19:14:26 GMT 29.192024 -13.478178 9,875 0 303 2112
2022-09-27 19:14:22 GMT 29.186251 -13.478286 9,750 0 300 1856
2022-09-27 19:14:16 GMT 29.177965 -13.478447 9,525 0 296 2432
2022-09-27 19:14:12 GMT 29.172455 -13.478534 9,350 0 295 2880
2022-09-27 19:14:06 GMT 29.164536 -13.478640 9,050 0 293 2880
2022-09-27 19:14:01 GMT 29.158274 -13.478663 8,825 0 293 2944
2022-09-27 19:13:56 GMT 29.150528 -13.478693 8,550 0 291 2944
2022-09-27 19:13:51 GMT 29.144714 -13.478640 8,350 0 291 2944
2022-09-27 19:13:47 GMT 29.139221 -13.478587 8,125 0 291 3008
2022-09-27 19:13:43 GMT 29.135138 -13.478501 8,000 359 290 2880
2022-09-27 19:13:41 GMT 29.131119 -13.478376 7,850 359 289 2752
2022-09-27 19:13:37 GMT 29.125900 -13.478270 7,675 359 288 2752
2022-09-27 19:13:31 GMT 29.117214 -13.477963 7,350 358 287 2816
2022-09-27 19:13:25 GMT 29.110277 -13.477640 7,125 358 285 2752
2022-09-27 19:13:20 GMT 29.103424 -13.477267 6,875 358 283 2752
2022-09-27 19:13:14 GMT 29.096218 -13.476886 6,625 359 282 2816
2022-09-27 19:13:11 GMT 29.090307 -13.476724 6,400 0 282 2880
2022-09-27 19:13:05 GMT 29.083374 -13.476686 6,175 3 281 2624
2022-09-27 19:13:00 GMT 29.077011 -13.477320 5,975 12 280 2496
2022-09-27 19:12:55 GMT 29.070374 -13.479063 5,750 22 282 2432
2022-09-27 19:12:49 GMT 29.063461 -13.482654 5,525 32 282 2240
2022-09-27 19:12:44 GMT 29.058517 -13.486457 5,375 42 281 1792
2022-09-27 19:12:39 GMT 29.053764 -13.491534 5,225 49 279 2176
2022-09-27 19:12:34 GMT 29.049389 -13.497404 5,025 51 276 2432
2022-09-27 19:12:30 GMT 29.045477 -13.502951 4,825 51 273 2240
2022-09-27 19:12:24 GMT 29.041489 -13.508694 4,675 51 266 1216
2022-09-27 19:12:19 GMT 29.037231 -13.514874 4,600 51 256 1024
2022-09-27 19:12:14 GMT 29.033421 -13.520400 4,450 52 251 1728
2022-09-27 19:12:09 GMT 29.030090 -13.525279 4,275 52 247 2560
2022-09-27 19:12:04 GMT 29.026794 -13.530086 4,075 52 244 2624
2022-09-27 19:11:58 GMT 29.022903 -13.535790 3,825 52 241 2752
2022-09-27 19:11:49 GMT 29.015823 -13.545766 3,375 45 235 2368
2022-09-27 19:11:38 GMT 29.007771 -13.554328 3,050 37 221 1344
2022-09-27 19:11:29 GMT 29.000839 -13.560192 2,825 35 209 1920
2022-09-27 19:11:26 GMT 28.997715 -13.562730 2,675 36 204 2560
2022-09-27 19:11:15 GMT 28.989990 -13.569383 2,275 38 197 1984
2022-09-27 19:11:13 GMT 28.988663 -13.570545 2,200 39 194 1856
2022-09-27 19:11:08 GMT 28.984543 -13.574506 2,025 41 188 1280
2022-09-27 19:11:05 GMT 28.983191 -13.575816 2,025 41 185 1152
2022-09-27 19:11:02 GMT 28.981155 -13.577940 1,950 42 179 896
2022-09-27 19:11:00 GMT 28.979979 -13.579155 1,950 42 179 832
2022-09-27 19:10:59 GMT 28.979416 -13.579735 1,925 42 173 896
2022-09-27 19:10:57 GMT 28.978043 -13.581161 1,875 42 171 1024
2022-09-27 19:10:55 GMT 28.976858 -13.582387 1,825 41 168 1088
2022-09-27 19:10:54 GMT 28.976301 -13.582979 1,825 41 167 1088
2022-09-27 19:10:52 GMT 28.975044 -13.584218 1,775 41 164 1152
2022-09-27 19:10:50 GMT 28.973881 -13.585349 1,725 40 162 1344
2022-09-27 19:10:49 GMT 28.973190 -13.586021 1,700 40 158 1664
2022-09-27 19:10:48 GMT 28.972183 -13.587024 1,650 40 158 1856
2022-09-27 19:10:45 GMT 28.970993 -13.588186 1,575 39 157 2176
2022-09-27 19:10:42 GMT 28.969225 -13.589926 1,450 38 157 3008
2022-09-27 19:10:39 GMT 28.967422 -13.591567 1,250 36 158 3520
2022-09-27 19:10:37 GMT 28.966246 -13.592619 1,150 33 160 3584
2022-09-27 19:10:36 GMT 28.965780 -13.592996 1,100 32 160 3584
2022-09-27 19:10:35 GMT 28.964197 -13.594127 950 30 161 3776
2022-09-27 19:10:34 GMT 28.963257 -13.594789 875 29 162 3904
2022-09-27 19:10:32 GMT 28.963257 -13.594789 850 28 162 4032
2022-09-27 19:10:30 GMT 28.961655 -13.595845 675 27 164 4096
2022-09-27 19:10:28 GMT 28.959824 -13.596902 500 27 166 3776
2022-09-27 19:10:26 GMT 28.959076 -13.597358 425 27 166 3776
2022-09-27 19:10:23 GMT 28.957632 -13.598220 300 27 167 3584
2022-09-27 19:10:22 GMT 28.956936 -13.598597 250 26 168 3392
2022-09-27 19:10:19 GMT 28.954834 -13.599807 75 26 169 3200
2022-09-27 19:10:18 GMT 28.953461 -13.600599 -25 27 169 2624
2022-09-27 19:10:16 GMT 28.952745 -13.601020 -50 26 169 2240
2022-09-27 19:10:15 GMT 28.952087 -13.601391 -75 27 167 1792
2022-09-27 19:10:13 GMT 28.950790 -13.602151 -125 27 162 960
2022-09-27 19:10:12 GMT 28.949249 -13.603029 -150 27 153 256
2022-09-27 19:10:10 GMT 28.948608 -13.603398 -150 27 153 192
2022-09-27 19:10:08 GMT 28.947298 -13.604144 -150 27 142 128
2022-09-27 19:10:07 GMT 28.946693 -13.604521 -150 27 142 192
2022-09-27 19:10:06 GMT 28.946091 -13.604877 -150 27 138 128
2022-09-27 19:10:04 GMT 28.944901 -13.605564 -150 27 130 128
2022-09-27 19:10:03 GMT 28.944305 -13.605934 -150 27 127 64
2022-09-27 19:10:00 GMT 28.942738 -13.606837 -150 27 114 64
2022-09-27 19:09:58 GMT 28.941833 -13.607360 -150 27 101 64
2022-09-27 19:09:57 GMT 28.941294 -13.607644 -150 27 101 64
2022-09-27 19:09:56 GMT 28.940460 -13.608152 -150 27 92 64
2022-09-27 19:09:54 GMT 28.940048 -13.608363 -150 27 87 64
2022-09-27 19:09:52 GMT 28.939270 -13.608825 -150 27 83 0
2022-09-27 19:09:51 GMT 28.938803 -13.609099 0 28 69
2022-09-27 19:09:50 GMT 28.938194 -13.609459 0 28 59
2022-09-27 19:09:48 GMT 28.937897 -13.609631 0 28 54
2022-09-27 19:09:46 GMT 28.937429 -13.609906 0 28 48
2022-09-27 19:09:44 GMT 28.936993 -13.610146 0 28 33
2022-09-27 19:09:42 GMT 28.936686 -13.610324 0 25 22
2022-09-27 19:09:40 GMT 28.936464 -13.610472 0 28 12
2022-09-27 19:09:39 GMT 28.936386 -13.610516 0 28 7
2022-09-27 19:09:36 GMT 28.936289 -13.610580 0 30 0
2022-09-27 19:09:25 GMT 28.936266 -13.610593 0 30 0
2022-09-27 19:09:15 GMT 28.936272 -13.610595 0 30 0
2022-09-27 19:09:00 GMT 28.936266 -13.610593 0 30 0
2022-09-27 19:08:59 GMT 28.936272 -13.610595 0 30 0
2022-09-27 19:08:57 GMT 28.936266 -13.610593 0 30 0
2022-09-27 19:08:55 GMT 28.936272 -13.610595 0 30 0
2022-09-27 19:08:54 GMT 28.936272 -13.610595 0 30 0
2022-09-27 19:08:51 GMT 28.936266 -13.610593 0 30 0
2022-09-27 19:08:49 GMT 28.936272 -13.610595 0 30 0
2022-09-27 19:08:46 GMT 28.936266 -13.610593 0 30 0
2022-09-27 19:08:45 GMT 28.936272 -13.610595 0 30 0
2022-09-27 19:08:42 GMT 28.936272 -13.610595 0 30 0
2022-09-27 19:08:40 GMT 28.936266 -13.610593 0 30 0
2022-09-27 19:08:39 GMT 28.936277 -13.610593 0 30 1
2022-09-27 19:08:38 GMT 28.936272 -13.610595 0 30 3
2022-09-27 19:08:35 GMT 28.936243 -13.610606 0 30 5
2022-09-27 19:08:33 GMT 28.936218 -13.610620 0 33 5
2022-09-27 19:08:32 GMT 28.936209 -13.610633 0 36 6
2022-09-27 19:08:29 GMT 28.936150 -13.610660 0 47 6
2022-09-27 19:08:27 GMT 28.936066 -13.610714 0 73 6
2022-09-27 19:08:24 GMT 28.936031 -13.610766 0 92 5
2022-09-27 19:08:23 GMT 28.936031 -13.610793 0 101 5
2022-09-27 19:08:20 GMT 28.936045 -13.610862 0 112 6
2022-09-27 19:08:19 GMT 28.936054 -13.610885 0 112 7
2022-09-27 19:08:18 GMT 28.936077 -13.610951 0 112 8
2022-09-27 19:08:16 GMT 28.936100 -13.611017 0 112 9
2022-09-27 19:08:14 GMT 28.936123 -13.611057 0 112 10
2022-09-27 19:08:12 GMT 28.936146 -13.611136 0 115 11
2022-09-27 19:08:10 GMT 28.936195 -13.611239 0 115 12
2022-09-27 19:08:08 GMT 28.936232 -13.611334 0 115 12
2022-09-27 19:08:07 GMT 28.936317 -13.611519 0 118 12
2022-09-27 19:08:05 GMT 28.936317 -13.611519 0 118 12
2022-09-27 19:08:03 GMT 28.936363 -13.611638 0 118 12
2022-09-27 19:08:01 GMT 28.936417 -13.611737 0 120 11
2022-09-27 19:08:00 GMT 28.936440 -13.611778 0 120 11
2022-09-27 19:07:59 GMT 28.936487 -13.611886 0 126 11
2022-09-27 19:07:57 GMT 28.936510 -13.611926 0 129 11
2022-09-27 19:07:56 GMT 28.936567 -13.612020 0 135 10
2022-09-27 19:07:54 GMT 28.936604 -13.612061 0 143 10
2022-09-27 19:07:38 GMT 28.937057 -13.612195 0 202 0
2022-09-27 19:07:28 GMT 28.937103 -13.612168 0 205 0
2022-09-27 19:07:18 GMT 28.937103 -13.612168 0 205 0
2022-09-27 19:07:08 GMT 28.937107 -13.612179 0 205 0
2022-09-27 19:06:59 GMT 28.937107 -13.612179 0 205 0
2022-09-27 19:06:43 GMT 28.937103 -13.612168 0 205 0
2022-09-27 19:06:38 GMT 28.937103 -13.612168 0 205 0
2022-09-27 19:06:23 GMT 28.937103 -13.612168 0 205 0
2022-09-27 19:06:18 GMT 28.937103 -13.612168 0 205 0
2022-09-27 19:06:08 GMT 28.937103 -13.612168 0 205 0
2022-09-27 19:05:58 GMT 28.937107 -13.612179 0 205 0
2022-09-27 19:05:53 GMT 28.937107 -13.612179 0 205 0
2022-09-27 19:05:48 GMT 28.937103 -13.612168 0 205 0
2022-09-27 19:05:38 GMT 28.937103 -13.612168 0 205 0
2022-09-27 19:05:13 GMT 28.937107 -13.612179 0 205 0
2022-09-27 19:05:08 GMT 28.937107 -13.612179 0 205 0
2022-09-27 19:05:02 GMT 28.937107 -13.612179 0 205 0
2022-09-27 19:04:59 GMT 28.937103 -13.612168 0 205 0
2022-09-27 19:04:52 GMT 28.937103 -13.612168 0 205 0
2022-09-27 19:04:48 GMT 28.937103 -13.612168 0 205 0
2022-09-27 19:04:42 GMT 28.937103 -13.612168 0 205 0
2022-09-27 19:04:35 GMT 28.937119 -13.612166 0 205 1
2022-09-27 19:04:31 GMT 28.937140 -13.612155 0 205 2
2022-09-27 19:04:27 GMT 28.937164 -13.612140 0 205 3
2022-09-27 19:04:20 GMT 28.937231 -13.612101 0 208 4
2022-09-27 19:04:14 GMT 28.937347 -13.612034 0 208 5
2022-09-27 19:04:11 GMT 28.937395 -13.612007 0 208 6
2022-09-27 19:04:06 GMT 28.937519 -13.611928 0 208 8
2022-09-27 19:04:01 GMT 28.937691 -13.611836 0 205 9
2022-09-27 19:03:51 GMT 28.938011 -13.611638 0 205 8
2022-09-27 19:03:47 GMT 28.938160 -13.611559 0 205 8
2022-09-27 19:03:41 GMT 28.938337 -13.611468 0 205 8
2022-09-27 19:03:31 GMT 28.938675 -13.611266 0 205 12
2022-09-27 19:03:25 GMT 28.938984 -13.611083 0 208 17
2022-09-27 19:03:20 GMT 28.939350 -13.610876 0 205 21
2022-09-27 19:03:10 GMT 28.940220 -13.610370 0 205 24
2022-09-27 19:03:01 GMT 28.941216 -13.609789 0 205 23
2022-09-27 19:02:51 GMT 28.942108 -13.609261 0 208 21
2022-09-27 19:02:41 GMT 28.942944 -13.608786 0 208 20
2022-09-27 19:02:31 GMT 28.943796 -13.608291 0 208 20
2022-09-27 19:02:20 GMT 28.944603 -13.607822 0 208 20
2022-09-27 19:02:10 GMT 28.945402 -13.607362 0 208 20
2022-09-27 19:02:00 GMT 28.946251 -13.606864 0 208 20
2022-09-27 19:01:49 GMT 28.947075 -13.606383 0 208 18
2022-09-27 19:01:40 GMT 28.947706 -13.606015 0 208 15
2022-09-27 19:01:30 GMT 28.948265 -13.605709 0 191 13
2022-09-27 19:01:18 GMT 28.948814 -13.605947 0 118 12
2022-09-27 19:00:28 GMT 28.948776 -13.607173 0 25 0
2022-09-27 19:00:13 GMT 28.948780 -13.607175 0 25 0
2022-09-27 19:00:04 GMT 28.948776 -13.607173 0 25 0
2022-09-27 18:59:44 GMT 28.948780 -13.607175 0 25 0
2022-09-27 18:59:23 GMT 28.948776 -13.607173 0 25 0
2022-09-27 18:58:03 GMT 28.948780 -13.607175 0 25 0

Making use of Plane Finder data

You are free to use the raw flight data, aircraft information and images provided in this report for your own purposes provided the data is correctly attributed to Plane Finder. We ask that you please credit Plane Finder and link to planefinder.net in close proximity to the content.

Optionally one of the following logos (no smaller then 150x24px) can be used and must link to planefinder.net

Embedding the Plane Finder map

You are welcome to embed the Plane Finder playback map on your website to offer visitors a more interactive experience. We suggest using the following HTML code:

<iframe src="//planefinder.net/data/report/LS1802-G-DRTK-7700-squawk-2022-09-27/map" width="800" height="600" seamless="seamless"></iframe>

Where our data comes from

Plane Finder has a global network of data feeds and antenna radars that receive data broadcast directly from aircraft. The primary technologies used are ADS-B and MLAT. We also show feeds from the FAA and a FLARM glider feed.

Click here to find out more about the Plane Finder network.

How we collect our data